<?xml version="1.0" encoding="UTF-8" standalone="no" ?>
<gpx xmlns="http://www.topografix.com/GPX/1/1" xmlns:xsi="http://www.w3.org/2001/XMLSchema-instance" xsi:schemaLocation="http://www.topografix.com/GPX/1/1 http://www.topografix.com/GPX/1/1/gpx.xsd" version="1.1" creator="VisuGPX - https://www.visugpx.com">
  <metadata>
    <name>Orlu En Beyss Naguille Orlu</name>
    <desc><![CDATA[Depart du parking foret a l'entrée du parc
Montée a En Beyss
Montée a la barriere rocheuse
Descente par Naguill
Retour par les forges d'Orlu]]></desc>
  </metadata>
  <trk>
    <name><![CDATA[7497248-Orlu, boucle longue (Les forges/En-Beysse/Naguille]]></name>
    <trkseg>
      <trkpt lat="42.67925" lon="1.94905">
        <ele>1148</ele>
        <time>2018-06-07T10:38:36Z</time>
      </trkpt>
      <trkpt lat="42.67856" lon="1.9498">
        <ele>1149</ele>
        <time>2018-06-07T10:39:36Z</time>
      </trkpt>
      <trkpt lat="42.67831" lon="1.95008">
        <ele>1146</ele>
        <time>2018-06-07T10:40:36Z</time>
      </trkpt>
      <trkpt lat="42.67813" lon="1.95014">
        <ele>1150</ele>
        <time>2018-06-07T10:41:36Z</time>
      </trkpt>
      <trkpt lat="42.67797" lon="1.95027">
        <ele>1154</ele>
        <time>2018-06-07T10:42:36Z</time>
      </trkpt>
      <trkpt lat="42.67761" lon="1.95102">
        <ele>1157</ele>
        <time>2018-06-07T10:43:36Z</time>
      </trkpt>
      <trkpt lat="42.67731" lon="1.95123">
        <ele>1162</ele>
        <time>2018-06-07T10:44:36Z</time>
      </trkpt>
      <trkpt lat="42.67728" lon="1.95139">
        <ele>1162</ele>
        <time>2018-06-07T10:45:36Z</time>
      </trkpt>
      <trkpt lat="42.67714" lon="1.95161">
        <ele>1163</ele>
        <time>2018-06-07T10:46:36Z</time>
      </trkpt>
      <trkpt lat="42.67698" lon="1.95165">
        <ele>1166</ele>
        <time>2018-06-07T10:47:36Z</time>
      </trkpt>
      <trkpt lat="42.67697" lon="1.9518">
        <ele>1166</ele>
        <time>2018-06-07T10:48:36Z</time>
      </trkpt>
      <trkpt lat="42.67664" lon="1.9521">
        <ele>1167</ele>
        <time>2018-06-07T10:49:36Z</time>
      </trkpt>
      <trkpt lat="42.67638" lon="1.95241">
        <ele>1168</ele>
        <time>2018-06-07T10:50:36Z</time>
      </trkpt>
      <trkpt lat="42.67624" lon="1.95264">
        <ele>1169</ele>
        <time>2018-06-07T10:51:36Z</time>
      </trkpt>
      <trkpt lat="42.67589" lon="1.95325">
        <ele>1169</ele>
        <time>2018-06-07T10:52:36Z</time>
      </trkpt>
      <trkpt lat="42.67552" lon="1.95346">
        <ele>1179</ele>
        <time>2018-06-07T10:53:36Z</time>
      </trkpt>
      <trkpt lat="42.67518" lon="1.95356">
        <ele>1187</ele>
        <time>2018-06-07T10:54:36Z</time>
      </trkpt>
      <trkpt lat="42.67501" lon="1.95372">
        <ele>1188</ele>
        <time>2018-06-07T10:55:36Z</time>
      </trkpt>
      <trkpt lat="42.67476" lon="1.95379">
        <ele>1193</ele>
        <time>2018-06-07T10:56:36Z</time>
      </trkpt>
      <trkpt lat="42.67461" lon="1.95413">
        <ele>1190</ele>
        <time>2018-06-07T10:57:36Z</time>
      </trkpt>
      <trkpt lat="42.67449" lon="1.95449">
        <ele>1190</ele>
        <time>2018-06-07T10:58:36Z</time>
      </trkpt>
      <trkpt lat="42.67411" lon="1.95472">
        <ele>1193</ele>
        <time>2018-06-07T10:59:36Z</time>
      </trkpt>
      <trkpt lat="42.67373" lon="1.95521">
        <ele>1195</ele>
        <time>2018-06-07T11:00:36Z</time>
      </trkpt>
      <trkpt lat="42.67363" lon="1.95529">
        <ele>1195</ele>
        <time>2018-06-07T11:01:36Z</time>
      </trkpt>
      <trkpt lat="42.67343" lon="1.95524">
        <ele>1199</ele>
        <time>2018-06-07T11:02:36Z</time>
      </trkpt>
      <trkpt lat="42.67335" lon="1.95562">
        <ele>1194</ele>
        <time>2018-06-07T11:03:36Z</time>
      </trkpt>
      <trkpt lat="42.67326" lon="1.95556">
        <ele>1197</ele>
        <time>2018-06-07T11:04:36Z</time>
      </trkpt>
      <trkpt lat="42.67328" lon="1.95522">
        <ele>1202</ele>
        <time>2018-06-07T11:05:36Z</time>
      </trkpt>
      <trkpt lat="42.67306" lon="1.9552">
        <ele>1209</ele>
        <time>2018-06-07T11:06:36Z</time>
      </trkpt>
      <trkpt lat="42.67304" lon="1.95571">
        <ele>1201</ele>
        <time>2018-06-07T11:07:36Z</time>
      </trkpt>
      <trkpt lat="42.67276" lon="1.95607">
        <ele>1205</ele>
        <time>2018-06-07T11:08:36Z</time>
      </trkpt>
      <trkpt lat="42.67228" lon="1.95627">
        <ele>1213</ele>
        <time>2018-06-07T11:09:36Z</time>
      </trkpt>
      <trkpt lat="42.67115" lon="1.95739">
        <ele>1221</ele>
        <time>2018-06-07T11:10:36Z</time>
      </trkpt>
      <trkpt lat="42.67051" lon="1.95756">
        <ele>1244</ele>
        <time>2018-06-07T11:11:36Z</time>
      </trkpt>
      <trkpt lat="42.67036" lon="1.95826">
        <ele>1248</ele>
        <time>2018-06-07T11:12:36Z</time>
      </trkpt>
      <trkpt lat="42.67031" lon="1.95944">
        <ele>1254</ele>
        <time>2018-06-07T11:13:36Z</time>
      </trkpt>
      <trkpt lat="42.66992" lon="1.96037">
        <ele>1257</ele>
        <time>2018-06-07T11:14:36Z</time>
      </trkpt>
      <trkpt lat="42.6692" lon="1.96127">
        <ele>1280</ele>
        <time>2018-06-07T11:15:36Z</time>
      </trkpt>
      <trkpt lat="42.66852" lon="1.96189">
        <ele>1290</ele>
        <time>2018-06-07T11:16:36Z</time>
      </trkpt>
      <trkpt lat="42.66809" lon="1.96246">
        <ele>1288</ele>
        <time>2018-06-07T11:17:36Z</time>
      </trkpt>
      <trkpt lat="42.66758" lon="1.96298">
        <ele>1297</ele>
        <time>2018-06-07T11:18:36Z</time>
      </trkpt>
      <trkpt lat="42.66729" lon="1.96334">
        <ele>1303</ele>
        <time>2018-06-07T11:19:36Z</time>
      </trkpt>
      <trkpt lat="42.66715" lon="1.96379">
        <ele>1300</ele>
        <time>2018-06-07T11:20:36Z</time>
      </trkpt>
      <trkpt lat="42.66633" lon="1.96528">
        <ele>1316</ele>
        <time>2018-06-07T11:21:36Z</time>
      </trkpt>
      <trkpt lat="42.66642" lon="1.9656">
        <ele>1307</ele>
        <time>2018-06-07T11:22:36Z</time>
      </trkpt>
      <trkpt lat="42.66644" lon="1.96602">
        <ele>1304</ele>
        <time>2018-06-07T11:23:36Z</time>
      </trkpt>
      <trkpt lat="42.66618" lon="1.96636">
        <ele>1304</ele>
        <time>2018-06-07T11:24:36Z</time>
      </trkpt>
      <trkpt lat="42.66576" lon="1.9664">
        <ele>1304</ele>
        <time>2018-06-07T11:25:36Z</time>
      </trkpt>
      <trkpt lat="42.66446" lon="1.96634">
        <ele>1320</ele>
        <time>2018-06-07T11:26:36Z</time>
      </trkpt>
      <trkpt lat="42.66424" lon="1.96634">
        <ele>1320</ele>
        <time>2018-06-07T11:27:36Z</time>
      </trkpt>
      <trkpt lat="42.66396" lon="1.96657">
        <ele>1314</ele>
        <time>2018-06-07T11:28:36Z</time>
      </trkpt>
      <trkpt lat="42.66345" lon="1.9668">
        <ele>1320</ele>
        <time>2018-06-07T11:29:36Z</time>
      </trkpt>
      <trkpt lat="42.6632" lon="1.96671">
        <ele>1325</ele>
        <time>2018-06-07T11:30:36Z</time>
      </trkpt>
      <trkpt lat="42.66354" lon="1.96655">
        <ele>1324</ele>
        <time>2018-06-07T11:31:36Z</time>
      </trkpt>
      <trkpt lat="42.66364" lon="1.96631">
        <ele>1331</ele>
        <time>2018-06-07T11:32:36Z</time>
      </trkpt>
      <trkpt lat="42.66349" lon="1.96621">
        <ele>1338</ele>
        <time>2018-06-07T11:33:36Z</time>
      </trkpt>
      <trkpt lat="42.66298" lon="1.96636">
        <ele>1338</ele>
        <time>2018-06-07T11:34:36Z</time>
      </trkpt>
      <trkpt lat="42.66252" lon="1.96598">
        <ele>1355</ele>
        <time>2018-06-07T11:35:36Z</time>
      </trkpt>
      <trkpt lat="42.6616" lon="1.96623">
        <ele>1355</ele>
        <time>2018-06-07T11:36:36Z</time>
      </trkpt>
      <trkpt lat="42.66043" lon="1.96565">
        <ele>1362</ele>
        <time>2018-06-07T11:37:36Z</time>
      </trkpt>
      <trkpt lat="42.65957" lon="1.96547">
        <ele>1371</ele>
        <time>2018-06-07T11:38:36Z</time>
      </trkpt>
      <trkpt lat="42.65947" lon="1.96531">
        <ele>1373</ele>
        <time>2018-06-07T11:39:36Z</time>
      </trkpt>
      <trkpt lat="42.6596" lon="1.9652">
        <ele>1373</ele>
        <time>2018-06-07T11:40:36Z</time>
      </trkpt>
      <trkpt lat="42.65998" lon="1.96528">
        <ele>1369</ele>
        <time>2018-06-07T11:41:36Z</time>
      </trkpt>
      <trkpt lat="42.65999" lon="1.96504">
        <ele>1374</ele>
        <time>2018-06-07T11:42:36Z</time>
      </trkpt>
      <trkpt lat="42.65964" lon="1.96495">
        <ele>1377</ele>
        <time>2018-06-07T11:43:36Z</time>
      </trkpt>
      <trkpt lat="42.65923" lon="1.96443">
        <ele>1389</ele>
        <time>2018-06-07T11:44:36Z</time>
      </trkpt>
      <trkpt lat="42.65846" lon="1.96474">
        <ele>1389</ele>
        <time>2018-06-07T11:45:36Z</time>
      </trkpt>
      <trkpt lat="42.65793" lon="1.96492">
        <ele>1390</ele>
        <time>2018-06-07T11:46:36Z</time>
      </trkpt>
      <trkpt lat="42.65754" lon="1.96488">
        <ele>1395</ele>
        <time>2018-06-07T11:47:36Z</time>
      </trkpt>
      <trkpt lat="42.65711" lon="1.96505">
        <ele>1393</ele>
        <time>2018-06-07T11:48:36Z</time>
      </trkpt>
      <trkpt lat="42.65634" lon="1.96457">
        <ele>1397</ele>
        <time>2018-06-07T11:49:36Z</time>
      </trkpt>
      <trkpt lat="42.6549" lon="1.96396">
        <ele>1402</ele>
        <time>2018-06-07T11:50:36Z</time>
      </trkpt>
      <trkpt lat="42.65272" lon="1.96272">
        <ele>1416</ele>
        <time>2018-06-07T11:51:36Z</time>
      </trkpt>
      <trkpt lat="42.65225" lon="1.96229">
        <ele>1425</ele>
        <time>2018-06-07T11:52:36Z</time>
      </trkpt>
      <trkpt lat="42.65191" lon="1.96232">
        <ele>1425</ele>
        <time>2018-06-07T11:53:36Z</time>
      </trkpt>
      <trkpt lat="42.65141" lon="1.96206">
        <ele>1433</ele>
        <time>2018-06-07T11:54:36Z</time>
      </trkpt>
      <trkpt lat="42.65032" lon="1.9623">
        <ele>1432</ele>
        <time>2018-06-07T11:55:36Z</time>
      </trkpt>
      <trkpt lat="42.64893" lon="1.96172">
        <ele>1430</ele>
        <time>2018-06-07T11:56:36Z</time>
      </trkpt>
      <trkpt lat="42.6487" lon="1.9615">
        <ele>1435</ele>
        <time>2018-06-07T11:57:36Z</time>
      </trkpt>
      <trkpt lat="42.64811" lon="1.96121">
        <ele>1447</ele>
        <time>2018-06-07T11:58:36Z</time>
      </trkpt>
      <trkpt lat="42.64788" lon="1.96106">
        <ele>1452</ele>
        <time>2018-06-07T11:59:36Z</time>
      </trkpt>
      <trkpt lat="42.64736" lon="1.96129">
        <ele>1441</ele>
        <time>2018-06-07T12:00:36Z</time>
      </trkpt>
      <trkpt lat="42.64692" lon="1.96126">
        <ele>1438</ele>
        <time>2018-06-07T12:01:36Z</time>
      </trkpt>
      <trkpt lat="42.64641" lon="1.96074">
        <ele>1451</ele>
        <time>2018-06-07T12:02:36Z</time>
      </trkpt>
      <trkpt lat="42.64574" lon="1.96034">
        <ele>1457</ele>
        <time>2018-06-07T12:03:36Z</time>
      </trkpt>
      <trkpt lat="42.64516" lon="1.96002">
        <ele>1454</ele>
        <time>2018-06-07T12:04:36Z</time>
      </trkpt>
      <trkpt lat="42.64507" lon="1.9598">
        <ele>1461</ele>
        <time>2018-06-07T12:05:36Z</time>
      </trkpt>
      <trkpt lat="42.64425" lon="1.95925">
        <ele>1463</ele>
        <time>2018-06-07T12:06:36Z</time>
      </trkpt>
      <trkpt lat="42.64397" lon="1.95949">
        <ele>1459</ele>
        <time>2018-06-07T12:07:36Z</time>
      </trkpt>
      <trkpt lat="42.64345" lon="1.95942">
        <ele>1461</ele>
        <time>2018-06-07T12:08:36Z</time>
      </trkpt>
      <trkpt lat="42.64329" lon="1.95947">
        <ele>1463</ele>
        <time>2018-06-07T12:09:36Z</time>
      </trkpt>
      <trkpt lat="42.64321" lon="1.95928">
        <ele>1462</ele>
        <time>2018-06-07T12:10:36Z</time>
      </trkpt>
      <trkpt lat="42.6429" lon="1.95908">
        <ele>1467</ele>
        <time>2018-06-07T12:11:36Z</time>
      </trkpt>
      <trkpt lat="42.64263" lon="1.95893">
        <ele>1470</ele>
        <time>2018-06-07T12:12:36Z</time>
      </trkpt>
      <trkpt lat="42.64239" lon="1.95862">
        <ele>1471</ele>
        <time>2018-06-07T12:13:36Z</time>
      </trkpt>
      <trkpt lat="42.64228" lon="1.95856">
        <ele>1474</ele>
        <time>2018-06-07T12:14:36Z</time>
      </trkpt>
      <trkpt lat="42.64223" lon="1.95825">
        <ele>1474</ele>
        <time>2018-06-07T12:15:36Z</time>
      </trkpt>
      <trkpt lat="42.64215" lon="1.95804">
        <ele>1477</ele>
        <time>2018-06-07T12:16:36Z</time>
      </trkpt>
      <trkpt lat="42.64214" lon="1.95786">
        <ele>1478</ele>
        <time>2018-06-07T12:17:36Z</time>
      </trkpt>
      <trkpt lat="42.64205" lon="1.95782">
        <ele>1480</ele>
        <time>2018-06-07T12:18:36Z</time>
      </trkpt>
      <trkpt lat="42.64214" lon="1.95763">
        <ele>1478</ele>
        <time>2018-06-07T12:19:36Z</time>
      </trkpt>
      <trkpt lat="42.64193" lon="1.95708">
        <ele>1486</ele>
        <time>2018-06-07T12:20:36Z</time>
      </trkpt>
      <trkpt lat="42.64194" lon="1.95673">
        <ele>1488</ele>
        <time>2018-06-07T12:21:36Z</time>
      </trkpt>
      <trkpt lat="42.64168" lon="1.95634">
        <ele>1488</ele>
        <time>2018-06-07T12:22:36Z</time>
      </trkpt>
      <trkpt lat="42.64157" lon="1.95634">
        <ele>1492</ele>
        <time>2018-06-07T12:23:36Z</time>
      </trkpt>
      <trkpt lat="42.6415" lon="1.95607">
        <ele>1494</ele>
        <time>2018-06-07T12:24:36Z</time>
      </trkpt>
      <trkpt lat="42.64133" lon="1.95601">
        <ele>1500</ele>
        <time>2018-06-07T12:25:36Z</time>
      </trkpt>
      <trkpt lat="42.64119" lon="1.95606">
        <ele>1506</ele>
        <time>2018-06-07T12:26:36Z</time>
      </trkpt>
      <trkpt lat="42.64101" lon="1.95628">
        <ele>1514</ele>
        <time>2018-06-07T12:27:36Z</time>
      </trkpt>
      <trkpt lat="42.64074" lon="1.9562">
        <ele>1526</ele>
        <time>2018-06-07T12:28:36Z</time>
      </trkpt>
      <trkpt lat="42.64074" lon="1.9559">
        <ele>1524</ele>
        <time>2018-06-07T12:29:36Z</time>
      </trkpt>
      <trkpt lat="42.6408" lon="1.95576">
        <ele>1520</ele>
        <time>2018-06-07T12:30:36Z</time>
      </trkpt>
      <trkpt lat="42.6407" lon="1.9556">
        <ele>1525</ele>
        <time>2018-06-07T12:31:36Z</time>
      </trkpt>
      <trkpt lat="42.64061" lon="1.95492">
        <ele>1529</ele>
        <time>2018-06-07T12:32:36Z</time>
      </trkpt>
      <trkpt lat="42.64047" lon="1.95446">
        <ele>1543</ele>
        <time>2018-06-07T12:33:36Z</time>
      </trkpt>
      <trkpt lat="42.64041" lon="1.95401">
        <ele>1550</ele>
        <time>2018-06-07T12:34:36Z</time>
      </trkpt>
      <trkpt lat="42.64045" lon="1.95372">
        <ele>1552</ele>
        <time>2018-06-07T12:35:36Z</time>
      </trkpt>
      <trkpt lat="42.64056" lon="1.9536">
        <ele>1549</ele>
        <time>2018-06-07T12:36:36Z</time>
      </trkpt>
      <trkpt lat="42.64028" lon="1.95317">
        <ele>1564</ele>
        <time>2018-06-07T12:37:36Z</time>
      </trkpt>
      <trkpt lat="42.64017" lon="1.95279">
        <ele>1568</ele>
        <time>2018-06-07T12:38:36Z</time>
      </trkpt>
      <trkpt lat="42.64019" lon="1.95265">
        <ele>1568</ele>
        <time>2018-06-07T12:39:36Z</time>
      </trkpt>
      <trkpt lat="42.64007" lon="1.95238">
        <ele>1571</ele>
        <time>2018-06-07T12:40:36Z</time>
      </trkpt>
      <trkpt lat="42.63995" lon="1.95224">
        <ele>1576</ele>
        <time>2018-06-07T12:41:36Z</time>
      </trkpt>
      <trkpt lat="42.63982" lon="1.95238">
        <ele>1583</ele>
        <time>2018-06-07T12:42:36Z</time>
      </trkpt>
      <trkpt lat="42.63978" lon="1.95292">
        <ele>1587</ele>
        <time>2018-06-07T12:43:36Z</time>
      </trkpt>
      <trkpt lat="42.63966" lon="1.95291">
        <ele>1595</ele>
        <time>2018-06-07T12:44:36Z</time>
      </trkpt>
      <trkpt lat="42.6394" lon="1.9522">
        <ele>1605</ele>
        <time>2018-06-07T12:45:36Z</time>
      </trkpt>
      <trkpt lat="42.63926" lon="1.952">
        <ele>1609</ele>
        <time>2018-06-07T12:46:36Z</time>
      </trkpt>
      <trkpt lat="42.63876" lon="1.95164">
        <ele>1624</ele>
        <time>2018-06-07T12:47:36Z</time>
      </trkpt>
      <trkpt lat="42.63864" lon="1.95133">
        <ele>1624</ele>
        <time>2018-06-07T12:48:36Z</time>
      </trkpt>
      <trkpt lat="42.63833" lon="1.95119">
        <ele>1632</ele>
        <time>2018-06-07T12:49:36Z</time>
      </trkpt>
      <trkpt lat="42.6381" lon="1.95138">
        <ele>1644</ele>
        <time>2018-06-07T12:50:36Z</time>
      </trkpt>
      <trkpt lat="42.63775" lon="1.95127">
        <ele>1654</ele>
        <time>2018-06-07T12:51:36Z</time>
      </trkpt>
      <trkpt lat="42.63755" lon="1.95117">
        <ele>1657</ele>
        <time>2018-06-07T12:52:36Z</time>
      </trkpt>
      <trkpt lat="42.63746" lon="1.95121">
        <ele>1662</ele>
        <time>2018-06-07T12:53:36Z</time>
      </trkpt>
      <trkpt lat="42.63741" lon="1.95109">
        <ele>1659</ele>
        <time>2018-06-07T12:54:36Z</time>
      </trkpt>
      <trkpt lat="42.63734" lon="1.95119">
        <ele>1665</ele>
        <time>2018-06-07T12:55:36Z</time>
      </trkpt>
      <trkpt lat="42.63726" lon="1.95108">
        <ele>1665</ele>
        <time>2018-06-07T12:56:36Z</time>
      </trkpt>
      <trkpt lat="42.63743" lon="1.95157">
        <ele>1675</ele>
        <time>2018-06-07T12:57:36Z</time>
      </trkpt>
      <trkpt lat="42.63711" lon="1.95137">
        <ele>1680</ele>
        <time>2018-06-07T12:58:36Z</time>
      </trkpt>
      <trkpt lat="42.63707" lon="1.95145">
        <ele>1684</ele>
        <time>2018-06-07T12:59:36Z</time>
      </trkpt>
      <trkpt lat="42.63658" lon="1.95121">
        <ele>1694</ele>
        <time>2018-06-07T13:00:36Z</time>
      </trkpt>
      <trkpt lat="42.63661" lon="1.95127">
        <ele>1695</ele>
        <time>2018-06-07T13:01:36Z</time>
      </trkpt>
      <trkpt lat="42.63657" lon="1.95128">
        <ele>1697</ele>
        <time>2018-06-07T13:02:36Z</time>
      </trkpt>
      <trkpt lat="42.63661" lon="1.95145">
        <ele>1700</ele>
        <time>2018-06-07T13:03:36Z</time>
      </trkpt>
      <trkpt lat="42.63645" lon="1.95125">
        <ele>1700</ele>
        <time>2018-06-07T13:04:36Z</time>
      </trkpt>
      <trkpt lat="42.63647" lon="1.95139">
        <ele>1704</ele>
        <time>2018-06-07T13:05:36Z</time>
      </trkpt>
      <trkpt lat="42.63594" lon="1.95095">
        <ele>1707</ele>
        <time>2018-06-07T13:06:36Z</time>
      </trkpt>
      <trkpt lat="42.63576" lon="1.95074">
        <ele>1706</ele>
        <time>2018-06-07T13:07:36Z</time>
      </trkpt>
      <trkpt lat="42.63555" lon="1.95071">
        <ele>1710</ele>
        <time>2018-06-07T13:08:36Z</time>
      </trkpt>
      <trkpt lat="42.6354" lon="1.95081">
        <ele>1717</ele>
        <time>2018-06-07T13:09:36Z</time>
      </trkpt>
      <trkpt lat="42.63534" lon="1.95091">
        <ele>1722</ele>
        <time>2018-06-07T13:10:36Z</time>
      </trkpt>
      <trkpt lat="42.63521" lon="1.95087">
        <ele>1723</ele>
        <time>2018-06-07T13:11:36Z</time>
      </trkpt>
      <trkpt lat="42.63506" lon="1.95092">
        <ele>1729</ele>
        <time>2018-06-07T13:12:36Z</time>
      </trkpt>
      <trkpt lat="42.63488" lon="1.95072">
        <ele>1729</ele>
        <time>2018-06-07T13:13:36Z</time>
      </trkpt>
      <trkpt lat="42.63464" lon="1.95061">
        <ele>1736</ele>
        <time>2018-06-07T13:14:36Z</time>
      </trkpt>
      <trkpt lat="42.63413" lon="1.95067">
        <ele>1758</ele>
        <time>2018-06-07T13:15:36Z</time>
      </trkpt>
      <trkpt lat="42.63413" lon="1.95075">
        <ele>1760</ele>
        <time>2018-06-07T13:16:36Z</time>
      </trkpt>
      <trkpt lat="42.63405" lon="1.95069">
        <ele>1763</ele>
        <time>2018-06-07T13:17:36Z</time>
      </trkpt>
      <trkpt lat="42.63402" lon="1.95075">
        <ele>1765</ele>
        <time>2018-06-07T13:18:36Z</time>
      </trkpt>
      <trkpt lat="42.63381" lon="1.95075">
        <ele>1775</ele>
        <time>2018-06-07T13:19:36Z</time>
      </trkpt>
      <trkpt lat="42.63347" lon="1.95067">
        <ele>1790</ele>
        <time>2018-06-07T13:20:36Z</time>
      </trkpt>
      <trkpt lat="42.63355" lon="1.95087">
        <ele>1789</ele>
        <time>2018-06-07T13:21:36Z</time>
      </trkpt>
      <trkpt lat="42.63334" lon="1.9508">
        <ele>1797</ele>
        <time>2018-06-07T13:22:36Z</time>
      </trkpt>
      <trkpt lat="42.63326" lon="1.95088">
        <ele>1801</ele>
        <time>2018-06-07T13:23:36Z</time>
      </trkpt>
      <trkpt lat="42.63346" lon="1.95105">
        <ele>1798</ele>
        <time>2018-06-07T13:24:36Z</time>
      </trkpt>
      <trkpt lat="42.63354" lon="1.95121">
        <ele>1800</ele>
        <time>2018-06-07T13:25:36Z</time>
      </trkpt>
      <trkpt lat="42.63325" lon="1.95114">
        <ele>1809</ele>
        <time>2018-06-07T13:26:36Z</time>
      </trkpt>
      <trkpt lat="42.63327" lon="1.95121">
        <ele>1810</ele>
        <time>2018-06-07T13:27:36Z</time>
      </trkpt>
      <trkpt lat="42.6334" lon="1.95134">
        <ele>1809</ele>
        <time>2018-06-07T13:28:36Z</time>
      </trkpt>
      <trkpt lat="42.63324" lon="1.95138">
        <ele>1815</ele>
        <time>2018-06-07T13:29:36Z</time>
      </trkpt>
      <trkpt lat="42.63311" lon="1.95137">
        <ele>1820</ele>
        <time>2018-06-07T13:30:36Z</time>
      </trkpt>
      <trkpt lat="42.63314" lon="1.95152">
        <ele>1823</ele>
        <time>2018-06-07T13:31:36Z</time>
      </trkpt>
      <trkpt lat="42.63335" lon="1.95185">
        <ele>1834</ele>
        <time>2018-06-07T13:32:36Z</time>
      </trkpt>
      <trkpt lat="42.6334" lon="1.95202">
        <ele>1847</ele>
        <time>2018-06-07T13:33:36Z</time>
      </trkpt>
      <trkpt lat="42.63309" lon="1.95195">
        <ele>1851</ele>
        <time>2018-06-07T13:34:36Z</time>
      </trkpt>
      <trkpt lat="42.63275" lon="1.95184">
        <ele>1852</ele>
        <time>2018-06-07T13:35:36Z</time>
      </trkpt>
      <trkpt lat="42.63247" lon="1.95191">
        <ele>1867</ele>
        <time>2018-06-07T13:36:36Z</time>
      </trkpt>
      <trkpt lat="42.63211" lon="1.95178">
        <ele>1871</ele>
        <time>2018-06-07T13:37:36Z</time>
      </trkpt>
      <trkpt lat="42.63116" lon="1.95147">
        <ele>1897</ele>
        <time>2018-06-07T13:38:36Z</time>
      </trkpt>
      <trkpt lat="42.6307" lon="1.95125">
        <ele>1911</ele>
        <time>2018-06-07T13:39:36Z</time>
      </trkpt>
      <trkpt lat="42.6302" lon="1.95099">
        <ele>1927</ele>
        <time>2018-06-07T13:40:36Z</time>
      </trkpt>
      <trkpt lat="42.63004" lon="1.95075">
        <ele>1928</ele>
        <time>2018-06-07T13:41:36Z</time>
      </trkpt>
      <trkpt lat="42.62984" lon="1.95079">
        <ele>1935</ele>
        <time>2018-06-07T13:42:36Z</time>
      </trkpt>
      <trkpt lat="42.62988" lon="1.95072">
        <ele>1932</ele>
        <time>2018-06-07T13:43:36Z</time>
      </trkpt>
      <trkpt lat="42.62977" lon="1.95075">
        <ele>1936</ele>
        <time>2018-06-07T13:44:36Z</time>
      </trkpt>
      <trkpt lat="42.6298" lon="1.95086">
        <ele>1938</ele>
        <time>2018-06-07T13:45:36Z</time>
      </trkpt>
      <trkpt lat="42.6296" lon="1.95076">
        <ele>1941</ele>
        <time>2018-06-07T13:46:36Z</time>
      </trkpt>
      <trkpt lat="42.62947" lon="1.95066">
        <ele>1942</ele>
        <time>2018-06-07T13:47:36Z</time>
      </trkpt>
      <trkpt lat="42.62903" lon="1.95066">
        <ele>1956</ele>
        <time>2018-06-07T13:48:36Z</time>
      </trkpt>
      <trkpt lat="42.62871" lon="1.95062">
        <ele>1970</ele>
        <time>2018-06-07T13:49:36Z</time>
      </trkpt>
      <trkpt lat="42.62853" lon="1.95033">
        <ele>1973</ele>
        <time>2018-06-07T13:50:36Z</time>
      </trkpt>
      <trkpt lat="42.62823" lon="1.9501">
        <ele>1985</ele>
        <time>2018-06-07T13:51:36Z</time>
      </trkpt>
      <trkpt lat="42.62825" lon="1.95023">
        <ele>1986</ele>
        <time>2018-06-07T13:52:36Z</time>
      </trkpt>
      <trkpt lat="42.62807" lon="1.95011">
        <ele>1995</ele>
        <time>2018-06-07T13:53:36Z</time>
      </trkpt>
      <trkpt lat="42.628" lon="1.94955">
        <ele>1984</ele>
        <time>2018-06-07T13:54:36Z</time>
      </trkpt>
      <trkpt lat="42.62784" lon="1.94913">
        <ele>1979</ele>
        <time>2018-06-07T13:55:36Z</time>
      </trkpt>
      <trkpt lat="42.62773" lon="1.94856">
        <ele>1976</ele>
        <time>2018-06-07T13:56:36Z</time>
      </trkpt>
      <trkpt lat="42.62754" lon="1.94821">
        <ele>1976</ele>
        <time>2018-06-07T13:57:36Z</time>
      </trkpt>
      <trkpt lat="42.62758" lon="1.94795">
        <ele>1975</ele>
        <time>2018-06-07T13:58:36Z</time>
      </trkpt>
      <trkpt lat="42.62754" lon="1.94784">
        <ele>1974</ele>
        <time>2018-06-07T13:59:36Z</time>
      </trkpt>
      <trkpt lat="42.62753" lon="1.94768">
        <ele>1973</ele>
        <time>2018-06-07T14:00:36Z</time>
      </trkpt>
      <trkpt lat="42.62746" lon="1.94722">
        <ele>1976</ele>
        <time>2018-06-07T14:01:36Z</time>
      </trkpt>
      <trkpt lat="42.6276" lon="1.94731">
        <ele>1977</ele>
        <time>2018-06-07T14:02:36Z</time>
      </trkpt>
      <trkpt lat="42.62736" lon="1.94691">
        <ele>1980</ele>
        <time>2018-06-07T14:03:36Z</time>
      </trkpt>
      <trkpt lat="42.62731" lon="1.94668">
        <ele>1982</ele>
        <time>2018-06-07T14:04:36Z</time>
      </trkpt>
      <trkpt lat="42.62721" lon="1.94657">
        <ele>1979</ele>
        <time>2018-06-07T14:05:36Z</time>
      </trkpt>
      <trkpt lat="42.62723" lon="1.94611">
        <ele>1979</ele>
        <time>2018-06-07T14:06:36Z</time>
      </trkpt>
      <trkpt lat="42.62719" lon="1.94602">
        <ele>1978</ele>
        <time>2018-06-07T14:07:36Z</time>
      </trkpt>
      <trkpt lat="42.62709" lon="1.94618">
        <ele>1975</ele>
        <time>2018-06-07T14:08:36Z</time>
      </trkpt>
      <trkpt lat="42.6271" lon="1.94601">
        <ele>1975</ele>
        <time>2018-06-07T14:09:36Z</time>
      </trkpt>
      <trkpt lat="42.62701" lon="1.94598">
        <ele>1973</ele>
        <time>2018-06-07T14:10:36Z</time>
      </trkpt>
      <trkpt lat="42.62695" lon="1.94601">
        <ele>1971</ele>
        <time>2018-06-07T14:11:36Z</time>
      </trkpt>
      <trkpt lat="42.62683" lon="1.94567">
        <ele>1966</ele>
        <time>2018-06-07T14:12:36Z</time>
      </trkpt>
      <trkpt lat="42.62695" lon="1.9455">
        <ele>1967</ele>
        <time>2018-06-07T14:13:36Z</time>
      </trkpt>
      <trkpt lat="42.62697" lon="1.94527">
        <ele>1964</ele>
        <time>2018-06-07T14:14:36Z</time>
      </trkpt>
      <trkpt lat="42.62678" lon="1.94518">
        <ele>1960</ele>
        <time>2018-06-07T14:15:36Z</time>
      </trkpt>
      <trkpt lat="42.62664" lon="1.94484">
        <ele>1959</ele>
        <time>2018-06-07T14:16:36Z</time>
      </trkpt>
      <trkpt lat="42.62669" lon="1.94461">
        <ele>1963</ele>
        <time>2018-06-07T14:17:36Z</time>
      </trkpt>
      <trkpt lat="42.62672" lon="1.9444">
        <ele>1966</ele>
        <time>2018-06-07T14:18:36Z</time>
      </trkpt>
      <trkpt lat="42.62665" lon="1.94424">
        <ele>1968</ele>
        <time>2018-06-07T14:19:36Z</time>
      </trkpt>
      <trkpt lat="42.62656" lon="1.9441">
        <ele>1968</ele>
        <time>2018-06-07T14:20:36Z</time>
      </trkpt>
      <trkpt lat="42.62639" lon="1.94391">
        <ele>1968</ele>
        <time>2018-06-07T14:21:36Z</time>
      </trkpt>
      <trkpt lat="42.62622" lon="1.94388">
        <ele>1965</ele>
        <time>2018-06-07T14:22:36Z</time>
      </trkpt>
      <trkpt lat="42.62602" lon="1.94339">
        <ele>1967</ele>
        <time>2018-06-07T14:23:36Z</time>
      </trkpt>
      <trkpt lat="42.62568" lon="1.94249">
        <ele>1974</ele>
        <time>2018-06-07T14:24:36Z</time>
      </trkpt>
      <trkpt lat="42.6256" lon="1.94208">
        <ele>1974</ele>
        <time>2018-06-07T14:25:36Z</time>
      </trkpt>
      <trkpt lat="42.62559" lon="1.94116">
        <ele>1983</ele>
        <time>2018-06-07T14:26:36Z</time>
      </trkpt>
      <trkpt lat="42.62553" lon="1.94059">
        <ele>1987</ele>
        <time>2018-06-07T14:27:36Z</time>
      </trkpt>
      <trkpt lat="42.62519" lon="1.93957">
        <ele>1974</ele>
        <time>2018-06-07T14:28:36Z</time>
      </trkpt>
      <trkpt lat="42.62492" lon="1.93885">
        <ele>1971</ele>
        <time>2018-06-07T14:29:36Z</time>
      </trkpt>
      <trkpt lat="42.62461" lon="1.9382">
        <ele>1973</ele>
        <time>2018-06-07T14:30:36Z</time>
      </trkpt>
      <trkpt lat="42.62461" lon="1.93783">
        <ele>1976</ele>
        <time>2018-06-07T14:31:36Z</time>
      </trkpt>
      <trkpt lat="42.62444" lon="1.93717">
        <ele>1979</ele>
        <time>2018-06-07T14:32:36Z</time>
      </trkpt>
      <trkpt lat="42.62442" lon="1.93623">
        <ele>1986</ele>
        <time>2018-06-07T14:33:36Z</time>
      </trkpt>
      <trkpt lat="42.62426" lon="1.9356">
        <ele>1986</ele>
        <time>2018-06-07T14:34:36Z</time>
      </trkpt>
      <trkpt lat="42.6239" lon="1.9352">
        <ele>1983</ele>
        <time>2018-06-07T14:35:36Z</time>
      </trkpt>
      <trkpt lat="42.62357" lon="1.93462">
        <ele>1981</ele>
        <time>2018-06-07T14:36:36Z</time>
      </trkpt>
      <trkpt lat="42.62327" lon="1.93459">
        <ele>1977</ele>
        <time>2018-06-07T14:37:36Z</time>
      </trkpt>
      <trkpt lat="42.62292" lon="1.93434">
        <ele>1977</ele>
        <time>2018-06-07T14:38:36Z</time>
      </trkpt>
      <trkpt lat="42.62297" lon="1.93371">
        <ele>1978</ele>
        <time>2018-06-07T14:39:36Z</time>
      </trkpt>
      <trkpt lat="42.62275" lon="1.93331">
        <ele>1980</ele>
        <time>2018-06-07T14:40:36Z</time>
      </trkpt>
      <trkpt lat="42.62253" lon="1.93266">
        <ele>2000</ele>
        <time>2018-06-07T14:41:36Z</time>
      </trkpt>
      <trkpt lat="42.62244" lon="1.93227">
        <ele>2017</ele>
        <time>2018-06-07T14:42:36Z</time>
      </trkpt>
      <trkpt lat="42.62253" lon="1.93157">
        <ele>2051</ele>
        <time>2018-06-07T14:43:36Z</time>
      </trkpt>
      <trkpt lat="42.62244" lon="1.93096">
        <ele>2076</ele>
        <time>2018-06-07T14:44:36Z</time>
      </trkpt>
      <trkpt lat="42.62242" lon="1.93018">
        <ele>2095</ele>
        <time>2018-06-07T14:45:36Z</time>
      </trkpt>
      <trkpt lat="42.62244" lon="1.92971">
        <ele>2101</ele>
        <time>2018-06-07T14:46:36Z</time>
      </trkpt>
      <trkpt lat="42.62243" lon="1.92945">
        <ele>2104</ele>
        <time>2018-06-07T14:47:36Z</time>
      </trkpt>
      <trkpt lat="42.62261" lon="1.92932">
        <ele>2109</ele>
        <time>2018-06-07T14:48:36Z</time>
      </trkpt>
      <trkpt lat="42.62268" lon="1.92889">
        <ele>2117</ele>
        <time>2018-06-07T14:49:36Z</time>
      </trkpt>
      <trkpt lat="42.62291" lon="1.92877">
        <ele>2127</ele>
        <time>2018-06-07T14:50:36Z</time>
      </trkpt>
      <trkpt lat="42.62318" lon="1.92886">
        <ele>2138</ele>
        <time>2018-06-07T14:51:36Z</time>
      </trkpt>
      <trkpt lat="42.62335" lon="1.92836">
        <ele>2142</ele>
        <time>2018-06-07T14:52:36Z</time>
      </trkpt>
      <trkpt lat="42.62355" lon="1.92827">
        <ele>2150</ele>
        <time>2018-06-07T14:53:36Z</time>
      </trkpt>
      <trkpt lat="42.6238" lon="1.92841">
        <ele>2161</ele>
        <time>2018-06-07T14:54:36Z</time>
      </trkpt>
      <trkpt lat="42.62392" lon="1.92842">
        <ele>2167</ele>
        <time>2018-06-07T14:55:36Z</time>
      </trkpt>
      <trkpt lat="42.62422" lon="1.92882">
        <ele>2185</ele>
        <time>2018-06-07T14:56:36Z</time>
      </trkpt>
      <trkpt lat="42.62452" lon="1.9287">
        <ele>2198</ele>
        <time>2018-06-07T14:57:36Z</time>
      </trkpt>
      <trkpt lat="42.6251" lon="1.92861">
        <ele>2226</ele>
        <time>2018-06-07T14:58:36Z</time>
      </trkpt>
      <trkpt lat="42.6252" lon="1.92846">
        <ele>2231</ele>
        <time>2018-06-07T14:59:36Z</time>
      </trkpt>
      <trkpt lat="42.62537" lon="1.92871">
        <ele>2237</ele>
        <time>2018-06-07T15:00:36Z</time>
      </trkpt>
      <trkpt lat="42.62579" lon="1.9288">
        <ele>2254</ele>
        <time>2018-06-07T15:01:36Z</time>
      </trkpt>
      <trkpt lat="42.62592" lon="1.92861">
        <ele>2262</ele>
        <time>2018-06-07T15:02:36Z</time>
      </trkpt>
      <trkpt lat="42.62617" lon="1.92873">
        <ele>2270</ele>
        <time>2018-06-07T15:03:36Z</time>
      </trkpt>
      <trkpt lat="42.62632" lon="1.92853">
        <ele>2282</ele>
        <time>2018-06-07T15:04:36Z</time>
      </trkpt>
      <trkpt lat="42.62667" lon="1.92865">
        <ele>2294</ele>
        <time>2018-06-07T15:05:36Z</time>
      </trkpt>
      <trkpt lat="42.62665" lon="1.92845">
        <ele>2300</ele>
        <time>2018-06-07T15:06:36Z</time>
      </trkpt>
      <trkpt lat="42.6268" lon="1.92852">
        <ele>2305</ele>
        <time>2018-06-07T15:07:36Z</time>
      </trkpt>
      <trkpt lat="42.62675" lon="1.9284">
        <ele>2307</ele>
        <time>2018-06-07T15:08:36Z</time>
      </trkpt>
      <trkpt lat="42.62688" lon="1.92838">
        <ele>2314</ele>
        <time>2018-06-07T15:09:36Z</time>
      </trkpt>
      <trkpt lat="42.62684" lon="1.92807">
        <ele>2326</ele>
        <time>2018-06-07T15:10:36Z</time>
      </trkpt>
      <trkpt lat="42.62717" lon="1.92808">
        <ele>2345</ele>
        <time>2018-06-07T15:11:36Z</time>
      </trkpt>
      <trkpt lat="42.62709" lon="1.92787">
        <ele>2351</ele>
        <time>2018-06-07T15:12:36Z</time>
      </trkpt>
      <trkpt lat="42.62729" lon="1.92788">
        <ele>2364</ele>
        <time>2018-06-07T15:13:36Z</time>
      </trkpt>
      <trkpt lat="42.62725" lon="1.92757">
        <ele>2379</ele>
        <time>2018-06-07T15:14:36Z</time>
      </trkpt>
      <trkpt lat="42.6271" lon="1.92716">
        <ele>2375</ele>
        <time>2018-06-07T15:15:36Z</time>
      </trkpt>
      <trkpt lat="42.62721" lon="1.92683">
        <ele>2385</ele>
        <time>2018-06-07T15:16:36Z</time>
      </trkpt>
      <trkpt lat="42.62714" lon="1.92661">
        <ele>2381</ele>
        <time>2018-06-07T15:17:36Z</time>
      </trkpt>
      <trkpt lat="42.62725" lon="1.92625">
        <ele>2374</ele>
        <time>2018-06-07T15:18:36Z</time>
      </trkpt>
      <trkpt lat="42.62729" lon="1.92589">
        <ele>2362</ele>
        <time>2018-06-07T15:19:36Z</time>
      </trkpt>
      <trkpt lat="42.62707" lon="1.9258">
        <ele>2360</ele>
        <time>2018-06-07T15:20:36Z</time>
      </trkpt>
      <trkpt lat="42.62718" lon="1.9257">
        <ele>2352</ele>
        <time>2018-06-07T15:21:36Z</time>
      </trkpt>
      <trkpt lat="42.62692" lon="1.9255">
        <ele>2345</ele>
        <time>2018-06-07T15:22:36Z</time>
      </trkpt>
      <trkpt lat="42.6272" lon="1.92542">
        <ele>2333</ele>
        <time>2018-06-07T15:23:36Z</time>
      </trkpt>
      <trkpt lat="42.628" lon="1.92585">
        <ele>2333</ele>
        <time>2018-06-07T15:24:36Z</time>
      </trkpt>
      <trkpt lat="42.62896" lon="1.92602">
        <ele>2307</ele>
        <time>2018-06-07T15:25:36Z</time>
      </trkpt>
      <trkpt lat="42.629" lon="1.92576">
        <ele>2293</ele>
        <time>2018-06-07T15:26:36Z</time>
      </trkpt>
      <trkpt lat="42.62929" lon="1.92579">
        <ele>2286</ele>
        <time>2018-06-07T15:27:36Z</time>
      </trkpt>
      <trkpt lat="42.62939" lon="1.92593">
        <ele>2289</ele>
        <time>2018-06-07T15:28:36Z</time>
      </trkpt>
      <trkpt lat="42.6298" lon="1.92602">
        <ele>2281</ele>
        <time>2018-06-07T15:29:36Z</time>
      </trkpt>
      <trkpt lat="42.63012" lon="1.92634">
        <ele>2285</ele>
        <time>2018-06-07T15:30:36Z</time>
      </trkpt>
      <trkpt lat="42.6304" lon="1.92605">
        <ele>2272</ele>
        <time>2018-06-07T15:31:36Z</time>
      </trkpt>
      <trkpt lat="42.63049" lon="1.9262">
        <ele>2276</ele>
        <time>2018-06-07T15:32:36Z</time>
      </trkpt>
      <trkpt lat="42.63063" lon="1.92609">
        <ele>2271</ele>
        <time>2018-06-07T15:33:36Z</time>
      </trkpt>
      <trkpt lat="42.63105" lon="1.92604">
        <ele>2271</ele>
        <time>2018-06-07T15:34:36Z</time>
      </trkpt>
      <trkpt lat="42.63143" lon="1.9257">
        <ele>2269</ele>
        <time>2018-06-07T15:35:36Z</time>
      </trkpt>
      <trkpt lat="42.63162" lon="1.9255">
        <ele>2268</ele>
        <time>2018-06-07T15:36:36Z</time>
      </trkpt>
      <trkpt lat="42.63197" lon="1.92532">
        <ele>2264</ele>
        <time>2018-06-07T15:37:36Z</time>
      </trkpt>
      <trkpt lat="42.63231" lon="1.92553">
        <ele>2267</ele>
        <time>2018-06-07T15:38:36Z</time>
      </trkpt>
      <trkpt lat="42.63277" lon="1.9257">
        <ele>2269</ele>
        <time>2018-06-07T15:39:36Z</time>
      </trkpt>
      <trkpt lat="42.63324" lon="1.92597">
        <ele>2271</ele>
        <time>2018-06-07T15:40:36Z</time>
      </trkpt>
      <trkpt lat="42.6334" lon="1.92593">
        <ele>2267</ele>
        <time>2018-06-07T15:41:36Z</time>
      </trkpt>
      <trkpt lat="42.63374" lon="1.92623">
        <ele>2266</ele>
        <time>2018-06-07T15:42:36Z</time>
      </trkpt>
      <trkpt lat="42.63392" lon="1.92625">
        <ele>2263</ele>
        <time>2018-06-07T15:43:36Z</time>
      </trkpt>
      <trkpt lat="42.63421" lon="1.92667">
        <ele>2265</ele>
        <time>2018-06-07T15:44:36Z</time>
      </trkpt>
      <trkpt lat="42.63431" lon="1.92679">
        <ele>2265</ele>
        <time>2018-06-07T15:45:36Z</time>
      </trkpt>
      <trkpt lat="42.63449" lon="1.92668">
        <ele>2260</ele>
        <time>2018-06-07T15:46:36Z</time>
      </trkpt>
      <trkpt lat="42.63495" lon="1.9267">
        <ele>2252</ele>
        <time>2018-06-07T15:47:36Z</time>
      </trkpt>
      <trkpt lat="42.63493" lon="1.92644">
        <ele>2251</ele>
        <time>2018-06-07T15:48:36Z</time>
      </trkpt>
      <trkpt lat="42.63522" lon="1.9265">
        <ele>2248</ele>
        <time>2018-06-07T15:49:36Z</time>
      </trkpt>
      <trkpt lat="42.63525" lon="1.92679">
        <ele>2248</ele>
        <time>2018-06-07T15:50:36Z</time>
      </trkpt>
      <trkpt lat="42.63548" lon="1.92708">
        <ele>2242</ele>
        <time>2018-06-07T15:51:36Z</time>
      </trkpt>
      <trkpt lat="42.63561" lon="1.92735">
        <ele>2237</ele>
        <time>2018-06-07T15:52:36Z</time>
      </trkpt>
      <trkpt lat="42.63598" lon="1.92758">
        <ele>2225</ele>
        <time>2018-06-07T15:53:36Z</time>
      </trkpt>
      <trkpt lat="42.6361" lon="1.92758">
        <ele>2222</ele>
        <time>2018-06-07T15:54:36Z</time>
      </trkpt>
      <trkpt lat="42.63621" lon="1.9277">
        <ele>2215</ele>
        <time>2018-06-07T15:55:36Z</time>
      </trkpt>
      <trkpt lat="42.63641" lon="1.92781">
        <ele>2205</ele>
        <time>2018-06-07T15:56:36Z</time>
      </trkpt>
      <trkpt lat="42.63663" lon="1.92777">
        <ele>2201</ele>
        <time>2018-06-07T15:57:36Z</time>
      </trkpt>
      <trkpt lat="42.63678" lon="1.92795">
        <ele>2186</ele>
        <time>2018-06-07T15:58:36Z</time>
      </trkpt>
      <trkpt lat="42.63696" lon="1.92823">
        <ele>2168</ele>
        <time>2018-06-07T15:59:36Z</time>
      </trkpt>
      <trkpt lat="42.63729" lon="1.92841">
        <ele>2157</ele>
        <time>2018-06-07T16:00:36Z</time>
      </trkpt>
      <trkpt lat="42.63748" lon="1.92838">
        <ele>2154</ele>
        <time>2018-06-07T16:01:36Z</time>
      </trkpt>
      <trkpt lat="42.63778" lon="1.92853">
        <ele>2143</ele>
        <time>2018-06-07T16:02:36Z</time>
      </trkpt>
      <trkpt lat="42.63816" lon="1.92815">
        <ele>2133</ele>
        <time>2018-06-07T16:03:36Z</time>
      </trkpt>
      <trkpt lat="42.63833" lon="1.92792">
        <ele>2132</ele>
        <time>2018-06-07T16:04:36Z</time>
      </trkpt>
      <trkpt lat="42.63894" lon="1.92789">
        <ele>2113</ele>
        <time>2018-06-07T16:05:36Z</time>
      </trkpt>
      <trkpt lat="42.63962" lon="1.92758">
        <ele>2102</ele>
        <time>2018-06-07T16:06:36Z</time>
      </trkpt>
      <trkpt lat="42.64009" lon="1.9272">
        <ele>2096</ele>
        <time>2018-06-07T16:07:36Z</time>
      </trkpt>
      <trkpt lat="42.64043" lon="1.92689">
        <ele>2093</ele>
        <time>2018-06-07T16:08:36Z</time>
      </trkpt>
      <trkpt lat="42.64066" lon="1.92652">
        <ele>2084</ele>
        <time>2018-06-07T16:09:36Z</time>
      </trkpt>
      <trkpt lat="42.64096" lon="1.92574">
        <ele>2068</ele>
        <time>2018-06-07T16:10:36Z</time>
      </trkpt>
      <trkpt lat="42.64125" lon="1.92507">
        <ele>2059</ele>
        <time>2018-06-07T16:11:36Z</time>
      </trkpt>
      <trkpt lat="42.64135" lon="1.92475">
        <ele>2052</ele>
        <time>2018-06-07T16:12:36Z</time>
      </trkpt>
      <trkpt lat="42.64149" lon="1.92459">
        <ele>2050</ele>
        <time>2018-06-07T16:13:36Z</time>
      </trkpt>
      <trkpt lat="42.6415" lon="1.9239">
        <ele>2029</ele>
        <time>2018-06-07T16:14:36Z</time>
      </trkpt>
      <trkpt lat="42.64131" lon="1.92361">
        <ele>2017</ele>
        <time>2018-06-07T16:15:36Z</time>
      </trkpt>
      <trkpt lat="42.64134" lon="1.92329">
        <ele>2010</ele>
        <time>2018-06-07T16:16:36Z</time>
      </trkpt>
      <trkpt lat="42.64115" lon="1.92289">
        <ele>1996</ele>
        <time>2018-06-07T16:17:36Z</time>
      </trkpt>
      <trkpt lat="42.64111" lon="1.92259">
        <ele>1988</ele>
        <time>2018-06-07T16:18:36Z</time>
      </trkpt>
      <trkpt lat="42.64122" lon="1.92236">
        <ele>1985</ele>
        <time>2018-06-07T16:19:36Z</time>
      </trkpt>
      <trkpt lat="42.64138" lon="1.92233">
        <ele>1987</ele>
        <time>2018-06-07T16:20:36Z</time>
      </trkpt>
      <trkpt lat="42.64154" lon="1.92186">
        <ele>1978</ele>
        <time>2018-06-07T16:21:36Z</time>
      </trkpt>
      <trkpt lat="42.64171" lon="1.92159">
        <ele>1973</ele>
        <time>2018-06-07T16:22:36Z</time>
      </trkpt>
      <trkpt lat="42.64178" lon="1.92112">
        <ele>1965</ele>
        <time>2018-06-07T16:23:36Z</time>
      </trkpt>
      <trkpt lat="42.64194" lon="1.92101">
        <ele>1967</ele>
        <time>2018-06-07T16:24:36Z</time>
      </trkpt>
      <trkpt lat="42.64215" lon="1.92036">
        <ele>1959</ele>
        <time>2018-06-07T16:25:36Z</time>
      </trkpt>
      <trkpt lat="42.64258" lon="1.91939">
        <ele>1949</ele>
        <time>2018-06-07T16:26:36Z</time>
      </trkpt>
      <trkpt lat="42.64268" lon="1.91926">
        <ele>1948</ele>
        <time>2018-06-07T16:27:36Z</time>
      </trkpt>
      <trkpt lat="42.64273" lon="1.91898">
        <ele>1945</ele>
        <time>2018-06-07T16:28:36Z</time>
      </trkpt>
      <trkpt lat="42.64301" lon="1.91846">
        <ele>1942</ele>
        <time>2018-06-07T16:29:36Z</time>
      </trkpt>
      <trkpt lat="42.64332" lon="1.91816">
        <ele>1941</ele>
        <time>2018-06-07T16:30:36Z</time>
      </trkpt>
      <trkpt lat="42.64351" lon="1.91798">
        <ele>1942</ele>
        <time>2018-06-07T16:31:36Z</time>
      </trkpt>
      <trkpt lat="42.64365" lon="1.91757">
        <ele>1934</ele>
        <time>2018-06-07T16:32:36Z</time>
      </trkpt>
      <trkpt lat="42.64407" lon="1.91726">
        <ele>1930</ele>
        <time>2018-06-07T16:33:36Z</time>
      </trkpt>
      <trkpt lat="42.64451" lon="1.91708">
        <ele>1926</ele>
        <time>2018-06-07T16:34:36Z</time>
      </trkpt>
      <trkpt lat="42.64478" lon="1.91703">
        <ele>1923</ele>
        <time>2018-06-07T16:35:36Z</time>
      </trkpt>
      <trkpt lat="42.64483" lon="1.91661">
        <ele>1911</ele>
        <time>2018-06-07T16:36:36Z</time>
      </trkpt>
      <trkpt lat="42.64473" lon="1.91629">
        <ele>1913</ele>
        <time>2018-06-07T16:37:36Z</time>
      </trkpt>
      <trkpt lat="42.64473" lon="1.91599">
        <ele>1914</ele>
        <time>2018-06-07T16:38:36Z</time>
      </trkpt>
      <trkpt lat="42.64505" lon="1.9157">
        <ele>1906</ele>
        <time>2018-06-07T16:39:36Z</time>
      </trkpt>
      <trkpt lat="42.64514" lon="1.91532">
        <ele>1910</ele>
        <time>2018-06-07T16:40:36Z</time>
      </trkpt>
      <trkpt lat="42.64522" lon="1.91486">
        <ele>1918</ele>
        <time>2018-06-07T16:41:36Z</time>
      </trkpt>
      <trkpt lat="42.64558" lon="1.91446">
        <ele>1914</ele>
        <time>2018-06-07T16:42:36Z</time>
      </trkpt>
      <trkpt lat="42.64589" lon="1.91388">
        <ele>1919</ele>
        <time>2018-06-07T16:43:36Z</time>
      </trkpt>
      <trkpt lat="42.64602" lon="1.91346">
        <ele>1931</ele>
        <time>2018-06-07T16:44:36Z</time>
      </trkpt>
      <trkpt lat="42.64646" lon="1.91329">
        <ele>1920</ele>
        <time>2018-06-07T16:45:36Z</time>
      </trkpt>
      <trkpt lat="42.64674" lon="1.91315">
        <ele>1918</ele>
        <time>2018-06-07T16:46:36Z</time>
      </trkpt>
      <trkpt lat="42.64699" lon="1.91292">
        <ele>1928</ele>
        <time>2018-06-07T16:47:36Z</time>
      </trkpt>
      <trkpt lat="42.64729" lon="1.91294">
        <ele>1923</ele>
        <time>2018-06-07T16:48:36Z</time>
      </trkpt>
      <trkpt lat="42.64754" lon="1.91273">
        <ele>1933</ele>
        <time>2018-06-07T16:49:36Z</time>
      </trkpt>
      <trkpt lat="42.64789" lon="1.91268">
        <ele>1928</ele>
        <time>2018-06-07T16:50:36Z</time>
      </trkpt>
      <trkpt lat="42.64817" lon="1.91291">
        <ele>1908</ele>
        <time>2018-06-07T16:51:36Z</time>
      </trkpt>
      <trkpt lat="42.64838" lon="1.9129">
        <ele>1904</ele>
        <time>2018-06-07T16:52:36Z</time>
      </trkpt>
      <trkpt lat="42.64856" lon="1.91298">
        <ele>1895</ele>
        <time>2018-06-07T16:53:36Z</time>
      </trkpt>
      <trkpt lat="42.64883" lon="1.91268">
        <ele>1905</ele>
        <time>2018-06-07T16:54:36Z</time>
      </trkpt>
      <trkpt lat="42.64913" lon="1.91276">
        <ele>1892</ele>
        <time>2018-06-07T16:55:36Z</time>
      </trkpt>
      <trkpt lat="42.64952" lon="1.91211">
        <ele>1903</ele>
        <time>2018-06-07T16:56:36Z</time>
      </trkpt>
      <trkpt lat="42.6498" lon="1.91164">
        <ele>1903</ele>
        <time>2018-06-07T16:57:36Z</time>
      </trkpt>
      <trkpt lat="42.65001" lon="1.91133">
        <ele>1900</ele>
        <time>2018-06-07T16:58:36Z</time>
      </trkpt>
      <trkpt lat="42.65009" lon="1.91109">
        <ele>1906</ele>
        <time>2018-06-07T16:59:36Z</time>
      </trkpt>
      <trkpt lat="42.65051" lon="1.91073">
        <ele>1894</ele>
        <time>2018-06-07T17:00:36Z</time>
      </trkpt>
      <trkpt lat="42.65051" lon="1.91032">
        <ele>1902</ele>
        <time>2018-06-07T17:01:36Z</time>
      </trkpt>
      <trkpt lat="42.65066" lon="1.90995">
        <ele>1900</ele>
        <time>2018-06-07T17:02:36Z</time>
      </trkpt>
      <trkpt lat="42.6506" lon="1.90932">
        <ele>1919</ele>
        <time>2018-06-07T17:03:36Z</time>
      </trkpt>
      <trkpt lat="42.65083" lon="1.9093">
        <ele>1908</ele>
        <time>2018-06-07T17:04:36Z</time>
      </trkpt>
      <trkpt lat="42.65133" lon="1.90963">
        <ele>1901</ele>
        <time>2018-06-07T17:05:36Z</time>
      </trkpt>
      <trkpt lat="42.65186" lon="1.90974">
        <ele>1905</ele>
        <time>2018-06-07T17:06:36Z</time>
      </trkpt>
      <trkpt lat="42.65201" lon="1.90993">
        <ele>1901</ele>
        <time>2018-06-07T17:07:36Z</time>
      </trkpt>
      <trkpt lat="42.65216" lon="1.91025">
        <ele>1895</ele>
        <time>2018-06-07T17:08:36Z</time>
      </trkpt>
      <trkpt lat="42.65418" lon="1.91206">
        <ele>1889</ele>
        <time>2018-06-07T17:09:36Z</time>
      </trkpt>
      <trkpt lat="42.65446" lon="1.91218">
        <ele>1895</ele>
        <time>2018-06-07T17:10:36Z</time>
      </trkpt>
      <trkpt lat="42.65483" lon="1.91258">
        <ele>1891</ele>
        <time>2018-06-07T17:11:36Z</time>
      </trkpt>
      <trkpt lat="42.65523" lon="1.91279">
        <ele>1888</ele>
        <time>2018-06-07T17:12:36Z</time>
      </trkpt>
      <trkpt lat="42.65553" lon="1.91306">
        <ele>1878</ele>
        <time>2018-06-07T17:13:36Z</time>
      </trkpt>
      <trkpt lat="42.65583" lon="1.91301">
        <ele>1881</ele>
        <time>2018-06-07T17:14:36Z</time>
      </trkpt>
      <trkpt lat="42.65705" lon="1.91234">
        <ele>1906</ele>
        <time>2018-06-07T17:15:36Z</time>
      </trkpt>
      <trkpt lat="42.65718" lon="1.91251">
        <ele>1902</ele>
        <time>2018-06-07T17:16:36Z</time>
      </trkpt>
      <trkpt lat="42.65762" lon="1.91284">
        <ele>1897</ele>
        <time>2018-06-07T17:17:36Z</time>
      </trkpt>
      <trkpt lat="42.6578" lon="1.91295">
        <ele>1895</ele>
        <time>2018-06-07T17:18:36Z</time>
      </trkpt>
      <trkpt lat="42.65807" lon="1.9129">
        <ele>1899</ele>
        <time>2018-06-07T17:19:36Z</time>
      </trkpt>
      <trkpt lat="42.65837" lon="1.91269">
        <ele>1909</ele>
        <time>2018-06-07T17:20:36Z</time>
      </trkpt>
      <trkpt lat="42.65857" lon="1.91285">
        <ele>1912</ele>
        <time>2018-06-07T17:21:36Z</time>
      </trkpt>
      <trkpt lat="42.65868" lon="1.91315">
        <ele>1904</ele>
        <time>2018-06-07T17:22:36Z</time>
      </trkpt>
      <trkpt lat="42.659" lon="1.91353">
        <ele>1901</ele>
        <time>2018-06-07T17:23:36Z</time>
      </trkpt>
      <trkpt lat="42.65975" lon="1.91441">
        <ele>1911</ele>
        <time>2018-06-07T17:24:36Z</time>
      </trkpt>
      <trkpt lat="42.66009" lon="1.91462">
        <ele>1913</ele>
        <time>2018-06-07T17:25:36Z</time>
      </trkpt>
      <trkpt lat="42.66027" lon="1.91474">
        <ele>1914</ele>
        <time>2018-06-07T17:26:36Z</time>
      </trkpt>
      <trkpt lat="42.66072" lon="1.91552">
        <ele>1896</ele>
        <time>2018-06-07T17:27:36Z</time>
      </trkpt>
      <trkpt lat="42.66099" lon="1.91571">
        <ele>1891</ele>
        <time>2018-06-07T17:28:36Z</time>
      </trkpt>
      <trkpt lat="42.66142" lon="1.91555">
        <ele>1904</ele>
        <time>2018-06-07T17:29:36Z</time>
      </trkpt>
      <trkpt lat="42.66153" lon="1.91545">
        <ele>1913</ele>
        <time>2018-06-07T17:30:36Z</time>
      </trkpt>
      <trkpt lat="42.66165" lon="1.91515">
        <ele>1938</ele>
        <time>2018-06-07T17:31:36Z</time>
      </trkpt>
      <trkpt lat="42.66169" lon="1.91529">
        <ele>1927</ele>
        <time>2018-06-07T17:32:36Z</time>
      </trkpt>
      <trkpt lat="42.66211" lon="1.91533">
        <ele>1925</ele>
        <time>2018-06-07T17:33:36Z</time>
      </trkpt>
      <trkpt lat="42.66188" lon="1.9155">
        <ele>1911</ele>
        <time>2018-06-07T17:34:36Z</time>
      </trkpt>
      <trkpt lat="42.66233" lon="1.91562">
        <ele>1898</ele>
        <time>2018-06-07T17:35:36Z</time>
      </trkpt>
      <trkpt lat="42.66158" lon="1.91619">
        <ele>1876</ele>
        <time>2018-06-07T17:36:36Z</time>
      </trkpt>
      <trkpt lat="42.66189" lon="1.91611">
        <ele>1873</ele>
        <time>2018-06-07T17:37:36Z</time>
      </trkpt>
      <trkpt lat="42.66225" lon="1.91629">
        <ele>1858</ele>
        <time>2018-06-07T17:38:36Z</time>
      </trkpt>
      <trkpt lat="42.66275" lon="1.91635">
        <ele>1845</ele>
        <time>2018-06-07T17:39:36Z</time>
      </trkpt>
      <trkpt lat="42.66301" lon="1.91629">
        <ele>1844</ele>
        <time>2018-06-07T17:40:36Z</time>
      </trkpt>
      <trkpt lat="42.66336" lon="1.91632">
        <ele>1838</ele>
        <time>2018-06-07T17:41:36Z</time>
      </trkpt>
      <trkpt lat="42.66338" lon="1.91662">
        <ele>1822</ele>
        <time>2018-06-07T17:42:36Z</time>
      </trkpt>
      <trkpt lat="42.66365" lon="1.91688">
        <ele>1823</ele>
        <time>2018-06-07T17:43:36Z</time>
      </trkpt>
      <trkpt lat="42.66386" lon="1.91718">
        <ele>1827</ele>
        <time>2018-06-07T17:44:36Z</time>
      </trkpt>
      <trkpt lat="42.66397" lon="1.91731">
        <ele>1827</ele>
        <time>2018-06-07T17:45:36Z</time>
      </trkpt>
      <trkpt lat="42.66431" lon="1.9175">
        <ele>1819</ele>
        <time>2018-06-07T17:46:36Z</time>
      </trkpt>
      <trkpt lat="42.66444" lon="1.91758">
        <ele>1816</ele>
        <time>2018-06-07T17:47:36Z</time>
      </trkpt>
      <trkpt lat="42.66442" lon="1.91785">
        <ele>1822</ele>
        <time>2018-06-07T17:48:36Z</time>
      </trkpt>
      <trkpt lat="42.66465" lon="1.9178">
        <ele>1812</ele>
        <time>2018-06-07T17:49:36Z</time>
      </trkpt>
      <trkpt lat="42.66495" lon="1.9181">
        <ele>1806</ele>
        <time>2018-06-07T17:50:36Z</time>
      </trkpt>
      <trkpt lat="42.66523" lon="1.91794">
        <ele>1791</ele>
        <time>2018-06-07T17:51:36Z</time>
      </trkpt>
      <trkpt lat="42.66556" lon="1.91849">
        <ele>1796</ele>
        <time>2018-06-07T17:52:36Z</time>
      </trkpt>
      <trkpt lat="42.66594" lon="1.9185">
        <ele>1787</ele>
        <time>2018-06-07T17:53:36Z</time>
      </trkpt>
      <trkpt lat="42.66606" lon="1.91836">
        <ele>1779</ele>
        <time>2018-06-07T17:54:36Z</time>
      </trkpt>
      <trkpt lat="42.66614" lon="1.9185">
        <ele>1787</ele>
        <time>2018-06-07T17:55:36Z</time>
      </trkpt>
      <trkpt lat="42.66665" lon="1.91847">
        <ele>1785</ele>
        <time>2018-06-07T17:56:36Z</time>
      </trkpt>
      <trkpt lat="42.66674" lon="1.91834">
        <ele>1777</ele>
        <time>2018-06-07T17:57:36Z</time>
      </trkpt>
      <trkpt lat="42.66652" lon="1.91824">
        <ele>1774</ele>
        <time>2018-06-07T17:58:36Z</time>
      </trkpt>
      <trkpt lat="42.66655" lon="1.91798">
        <ele>1764</ele>
        <time>2018-06-07T17:59:36Z</time>
      </trkpt>
      <trkpt lat="42.66668" lon="1.91807">
        <ele>1767</ele>
        <time>2018-06-07T18:00:36Z</time>
      </trkpt>
      <trkpt lat="42.66674" lon="1.91788">
        <ele>1759</ele>
        <time>2018-06-07T18:01:36Z</time>
      </trkpt>
      <trkpt lat="42.66708" lon="1.91759">
        <ele>1748</ele>
        <time>2018-06-07T18:02:36Z</time>
      </trkpt>
      <trkpt lat="42.66724" lon="1.91771">
        <ele>1752</ele>
        <time>2018-06-07T18:03:36Z</time>
      </trkpt>
      <trkpt lat="42.66747" lon="1.91741">
        <ele>1743</ele>
        <time>2018-06-07T18:04:36Z</time>
      </trkpt>
      <trkpt lat="42.66779" lon="1.91733">
        <ele>1738</ele>
        <time>2018-06-07T18:05:36Z</time>
      </trkpt>
      <trkpt lat="42.66802" lon="1.91728">
        <ele>1735</ele>
        <time>2018-06-07T18:06:36Z</time>
      </trkpt>
      <trkpt lat="42.66829" lon="1.917">
        <ele>1730</ele>
        <time>2018-06-07T18:07:36Z</time>
      </trkpt>
      <trkpt lat="42.66855" lon="1.9172">
        <ele>1731</ele>
        <time>2018-06-07T18:08:36Z</time>
      </trkpt>
      <trkpt lat="42.66871" lon="1.91725">
        <ele>1730</ele>
        <time>2018-06-07T18:09:36Z</time>
      </trkpt>
      <trkpt lat="42.66891" lon="1.91728">
        <ele>1729</ele>
        <time>2018-06-07T18:10:36Z</time>
      </trkpt>
      <trkpt lat="42.66903" lon="1.91752">
        <ele>1724</ele>
        <time>2018-06-07T18:11:36Z</time>
      </trkpt>
      <trkpt lat="42.66921" lon="1.91776">
        <ele>1720</ele>
        <time>2018-06-07T18:12:36Z</time>
      </trkpt>
      <trkpt lat="42.66938" lon="1.91806">
        <ele>1715</ele>
        <time>2018-06-07T18:13:36Z</time>
      </trkpt>
      <trkpt lat="42.66921" lon="1.9186">
        <ele>1719</ele>
        <time>2018-06-07T18:14:36Z</time>
      </trkpt>
      <trkpt lat="42.66937" lon="1.91867">
        <ele>1716</ele>
        <time>2018-06-07T18:15:36Z</time>
      </trkpt>
      <trkpt lat="42.66944" lon="1.91889">
        <ele>1718</ele>
        <time>2018-06-07T18:16:36Z</time>
      </trkpt>
      <trkpt lat="42.66958" lon="1.91895">
        <ele>1714</ele>
        <time>2018-06-07T18:17:36Z</time>
      </trkpt>
      <trkpt lat="42.66987" lon="1.91947">
        <ele>1712</ele>
        <time>2018-06-07T18:18:36Z</time>
      </trkpt>
      <trkpt lat="42.67007" lon="1.91961">
        <ele>1708</ele>
        <time>2018-06-07T18:19:36Z</time>
      </trkpt>
      <trkpt lat="42.67021" lon="1.92009">
        <ele>1716</ele>
        <time>2018-06-07T18:20:36Z</time>
      </trkpt>
      <trkpt lat="42.6708" lon="1.92008">
        <ele>1700</ele>
        <time>2018-06-07T18:21:36Z</time>
      </trkpt>
      <trkpt lat="42.67109" lon="1.92026">
        <ele>1695</ele>
        <time>2018-06-07T18:22:36Z</time>
      </trkpt>
      <trkpt lat="42.67145" lon="1.92087">
        <ele>1692</ele>
        <time>2018-06-07T18:23:36Z</time>
      </trkpt>
      <trkpt lat="42.67166" lon="1.92102">
        <ele>1687</ele>
        <time>2018-06-07T18:24:36Z</time>
      </trkpt>
      <trkpt lat="42.67182" lon="1.92133">
        <ele>1689</ele>
        <time>2018-06-07T18:25:36Z</time>
      </trkpt>
      <trkpt lat="42.67208" lon="1.92127">
        <ele>1679</ele>
        <time>2018-06-07T18:26:36Z</time>
      </trkpt>
      <trkpt lat="42.67233" lon="1.92103">
        <ele>1668</ele>
        <time>2018-06-07T18:27:36Z</time>
      </trkpt>
      <trkpt lat="42.67248" lon="1.92109">
        <ele>1664</ele>
        <time>2018-06-07T18:28:36Z</time>
      </trkpt>
      <trkpt lat="42.67268" lon="1.92141">
        <ele>1662</ele>
        <time>2018-06-07T18:29:36Z</time>
      </trkpt>
      <trkpt lat="42.67275" lon="1.92177">
        <ele>1669</ele>
        <time>2018-06-07T18:30:36Z</time>
      </trkpt>
      <trkpt lat="42.67286" lon="1.92171">
        <ele>1661</ele>
        <time>2018-06-07T18:31:36Z</time>
      </trkpt>
      <trkpt lat="42.67297" lon="1.92173">
        <ele>1658</ele>
        <time>2018-06-07T18:32:36Z</time>
      </trkpt>
      <trkpt lat="42.67298" lon="1.92112">
        <ele>1647</ele>
        <time>2018-06-07T18:33:36Z</time>
      </trkpt>
      <trkpt lat="42.67305" lon="1.92131">
        <ele>1647</ele>
        <time>2018-06-07T18:34:36Z</time>
      </trkpt>
      <trkpt lat="42.67314" lon="1.92109">
        <ele>1641</ele>
        <time>2018-06-07T18:35:36Z</time>
      </trkpt>
      <trkpt lat="42.6732" lon="1.92132">
        <ele>1642</ele>
        <time>2018-06-07T18:36:36Z</time>
      </trkpt>
      <trkpt lat="42.67328" lon="1.92089">
        <ele>1634</ele>
        <time>2018-06-07T18:37:36Z</time>
      </trkpt>
      <trkpt lat="42.6736" lon="1.92076">
        <ele>1618</ele>
        <time>2018-06-07T18:38:36Z</time>
      </trkpt>
      <trkpt lat="42.67369" lon="1.92118">
        <ele>1621</ele>
        <time>2018-06-07T18:39:36Z</time>
      </trkpt>
      <trkpt lat="42.67388" lon="1.92142">
        <ele>1617</ele>
        <time>2018-06-07T18:40:36Z</time>
      </trkpt>
      <trkpt lat="42.67383" lon="1.92095">
        <ele>1610</ele>
        <time>2018-06-07T18:41:36Z</time>
      </trkpt>
      <trkpt lat="42.67401" lon="1.92095">
        <ele>1601</ele>
        <time>2018-06-07T18:42:36Z</time>
      </trkpt>
      <trkpt lat="42.67397" lon="1.92071">
        <ele>1599</ele>
        <time>2018-06-07T18:43:36Z</time>
      </trkpt>
      <trkpt lat="42.67409" lon="1.92062">
        <ele>1592</ele>
        <time>2018-06-07T18:44:36Z</time>
      </trkpt>
      <trkpt lat="42.67427" lon="1.92057">
        <ele>1583</ele>
        <time>2018-06-07T18:45:36Z</time>
      </trkpt>
      <trkpt lat="42.67432" lon="1.92031">
        <ele>1577</ele>
        <time>2018-06-07T18:46:36Z</time>
      </trkpt>
      <trkpt lat="42.67456" lon="1.92016">
        <ele>1563</ele>
        <time>2018-06-07T18:47:36Z</time>
      </trkpt>
      <trkpt lat="42.67455" lon="1.91993">
        <ele>1559</ele>
        <time>2018-06-07T18:48:36Z</time>
      </trkpt>
      <trkpt lat="42.67445" lon="1.9198">
        <ele>1559</ele>
        <time>2018-06-07T18:49:36Z</time>
      </trkpt>
      <trkpt lat="42.67471" lon="1.9198">
        <ele>1548</ele>
        <time>2018-06-07T18:50:36Z</time>
      </trkpt>
      <trkpt lat="42.67457" lon="1.91965">
        <ele>1549</ele>
        <time>2018-06-07T18:51:36Z</time>
      </trkpt>
      <trkpt lat="42.6748" lon="1.91962">
        <ele>1538</ele>
        <time>2018-06-07T18:52:36Z</time>
      </trkpt>
      <trkpt lat="42.67492" lon="1.91942">
        <ele>1528</ele>
        <time>2018-06-07T18:53:36Z</time>
      </trkpt>
      <trkpt lat="42.67471" lon="1.91938">
        <ele>1534</ele>
        <time>2018-06-07T18:54:36Z</time>
      </trkpt>
      <trkpt lat="42.67489" lon="1.91925">
        <ele>1524</ele>
        <time>2018-06-07T18:55:36Z</time>
      </trkpt>
      <trkpt lat="42.67518" lon="1.91935">
        <ele>1517</ele>
        <time>2018-06-07T18:56:36Z</time>
      </trkpt>
      <trkpt lat="42.67512" lon="1.91916">
        <ele>1514</ele>
        <time>2018-06-07T18:57:36Z</time>
      </trkpt>
      <trkpt lat="42.67533" lon="1.91921">
        <ele>1509</ele>
        <time>2018-06-07T18:58:36Z</time>
      </trkpt>
      <trkpt lat="42.67529" lon="1.91902">
        <ele>1504</ele>
        <time>2018-06-07T18:59:36Z</time>
      </trkpt>
      <trkpt lat="42.67544" lon="1.919">
        <ele>1499</ele>
        <time>2018-06-07T19:00:36Z</time>
      </trkpt>
      <trkpt lat="42.67524" lon="1.91862">
        <ele>1492</ele>
        <time>2018-06-07T19:01:36Z</time>
      </trkpt>
      <trkpt lat="42.67503" lon="1.9186">
        <ele>1496</ele>
        <time>2018-06-07T19:02:36Z</time>
      </trkpt>
      <trkpt lat="42.67483" lon="1.9186">
        <ele>1501</ele>
        <time>2018-06-07T19:03:36Z</time>
      </trkpt>
      <trkpt lat="42.675" lon="1.91851">
        <ele>1493</ele>
        <time>2018-06-07T19:04:36Z</time>
      </trkpt>
      <trkpt lat="42.67481" lon="1.91847">
        <ele>1496</ele>
        <time>2018-06-07T19:05:36Z</time>
      </trkpt>
      <trkpt lat="42.67487" lon="1.91834">
        <ele>1490</ele>
        <time>2018-06-07T19:06:36Z</time>
      </trkpt>
      <trkpt lat="42.67469" lon="1.91826">
        <ele>1492</ele>
        <time>2018-06-07T19:07:36Z</time>
      </trkpt>
      <trkpt lat="42.67488" lon="1.91824">
        <ele>1486</ele>
        <time>2018-06-07T19:08:36Z</time>
      </trkpt>
      <trkpt lat="42.67469" lon="1.91815">
        <ele>1489</ele>
        <time>2018-06-07T19:09:36Z</time>
      </trkpt>
      <trkpt lat="42.67462" lon="1.91791">
        <ele>1484</ele>
        <time>2018-06-07T19:10:36Z</time>
      </trkpt>
      <trkpt lat="42.67464" lon="1.91765">
        <ele>1475</ele>
        <time>2018-06-07T19:11:36Z</time>
      </trkpt>
      <trkpt lat="42.67473" lon="1.91752">
        <ele>1469</ele>
        <time>2018-06-07T19:12:36Z</time>
      </trkpt>
      <trkpt lat="42.67493" lon="1.91753">
        <ele>1462</ele>
        <time>2018-06-07T19:13:36Z</time>
      </trkpt>
      <trkpt lat="42.67509" lon="1.91747">
        <ele>1458</ele>
        <time>2018-06-07T19:14:36Z</time>
      </trkpt>
      <trkpt lat="42.67529" lon="1.91733">
        <ele>1455</ele>
        <time>2018-06-07T19:15:36Z</time>
      </trkpt>
      <trkpt lat="42.67544" lon="1.91718">
        <ele>1451</ele>
        <time>2018-06-07T19:16:36Z</time>
      </trkpt>
      <trkpt lat="42.67554" lon="1.91698">
        <ele>1447</ele>
        <time>2018-06-07T19:17:36Z</time>
      </trkpt>
      <trkpt lat="42.67557" lon="1.91675">
        <ele>1444</ele>
        <time>2018-06-07T19:18:36Z</time>
      </trkpt>
      <trkpt lat="42.6756" lon="1.91665">
        <ele>1443</ele>
        <time>2018-06-07T19:19:36Z</time>
      </trkpt>
      <trkpt lat="42.67567" lon="1.91663">
        <ele>1440</ele>
        <time>2018-06-07T19:20:36Z</time>
      </trkpt>
      <trkpt lat="42.67575" lon="1.9167">
        <ele>1437</ele>
        <time>2018-06-07T19:21:36Z</time>
      </trkpt>
      <trkpt lat="42.6758" lon="1.91657">
        <ele>1436</ele>
        <time>2018-06-07T19:22:36Z</time>
      </trkpt>
      <trkpt lat="42.67593" lon="1.91645">
        <ele>1433</ele>
        <time>2018-06-07T19:23:36Z</time>
      </trkpt>
      <trkpt lat="42.67601" lon="1.91639">
        <ele>1431</ele>
        <time>2018-06-07T19:24:36Z</time>
      </trkpt>
      <trkpt lat="42.67612" lon="1.91612">
        <ele>1428</ele>
        <time>2018-06-07T19:25:36Z</time>
      </trkpt>
      <trkpt lat="42.67629" lon="1.91592">
        <ele>1419</ele>
        <time>2018-06-07T19:26:36Z</time>
      </trkpt>
      <trkpt lat="42.67645" lon="1.91556">
        <ele>1412</ele>
        <time>2018-06-07T19:27:36Z</time>
      </trkpt>
      <trkpt lat="42.67663" lon="1.91523">
        <ele>1405</ele>
        <time>2018-06-07T19:28:36Z</time>
      </trkpt>
      <trkpt lat="42.67671" lon="1.91501">
        <ele>1402</ele>
        <time>2018-06-07T19:29:36Z</time>
      </trkpt>
      <trkpt lat="42.67673" lon="1.91487">
        <ele>1407</ele>
        <time>2018-06-07T19:30:36Z</time>
      </trkpt>
      <trkpt lat="42.67695" lon="1.9148">
        <ele>1395</ele>
        <time>2018-06-07T19:31:36Z</time>
      </trkpt>
      <trkpt lat="42.67722" lon="1.91457">
        <ele>1386</ele>
        <time>2018-06-07T19:32:36Z</time>
      </trkpt>
      <trkpt lat="42.67721" lon="1.9147">
        <ele>1382</ele>
        <time>2018-06-07T19:33:36Z</time>
      </trkpt>
      <trkpt lat="42.67747" lon="1.91426">
        <ele>1378</ele>
        <time>2018-06-07T19:34:36Z</time>
      </trkpt>
      <trkpt lat="42.67759" lon="1.9141">
        <ele>1378</ele>
        <time>2018-06-07T19:35:36Z</time>
      </trkpt>
      <trkpt lat="42.67767" lon="1.91385">
        <ele>1389</ele>
        <time>2018-06-07T19:36:36Z</time>
      </trkpt>
      <trkpt lat="42.67767" lon="1.91408">
        <ele>1374</ele>
        <time>2018-06-07T19:37:36Z</time>
      </trkpt>
      <trkpt lat="42.67771" lon="1.91418">
        <ele>1364</ele>
        <time>2018-06-07T19:38:36Z</time>
      </trkpt>
      <trkpt lat="42.67778" lon="1.914">
        <ele>1371</ele>
        <time>2018-06-07T19:39:36Z</time>
      </trkpt>
      <trkpt lat="42.67798" lon="1.91375">
        <ele>1373</ele>
        <time>2018-06-07T19:40:36Z</time>
      </trkpt>
      <trkpt lat="42.67814" lon="1.91367">
        <ele>1366</ele>
        <time>2018-06-07T19:41:36Z</time>
      </trkpt>
      <trkpt lat="42.67819" lon="1.91379">
        <ele>1355</ele>
        <time>2018-06-07T19:42:36Z</time>
      </trkpt>
      <trkpt lat="42.67811" lon="1.91386">
        <ele>1357</ele>
        <time>2018-06-07T19:43:36Z</time>
      </trkpt>
      <trkpt lat="42.67804" lon="1.914">
        <ele>1353</ele>
        <time>2018-06-07T19:44:36Z</time>
      </trkpt>
      <trkpt lat="42.67806" lon="1.91414">
        <ele>1343</ele>
        <time>2018-06-07T19:45:36Z</time>
      </trkpt>
      <trkpt lat="42.67823" lon="1.91397">
        <ele>1341</ele>
        <time>2018-06-07T19:46:36Z</time>
      </trkpt>
      <trkpt lat="42.6783" lon="1.91403">
        <ele>1333</ele>
        <time>2018-06-07T19:47:36Z</time>
      </trkpt>
      <trkpt lat="42.67841" lon="1.91384">
        <ele>1337</ele>
        <time>2018-06-07T19:48:36Z</time>
      </trkpt>
      <trkpt lat="42.67844" lon="1.91399">
        <ele>1327</ele>
        <time>2018-06-07T19:49:36Z</time>
      </trkpt>
      <trkpt lat="42.67835" lon="1.91415">
        <ele>1323</ele>
        <time>2018-06-07T19:50:36Z</time>
      </trkpt>
      <trkpt lat="42.67847" lon="1.91405">
        <ele>1322</ele>
        <time>2018-06-07T19:51:36Z</time>
      </trkpt>
      <trkpt lat="42.6785" lon="1.91426">
        <ele>1312</ele>
        <time>2018-06-07T19:52:36Z</time>
      </trkpt>
      <trkpt lat="42.67855" lon="1.91408">
        <ele>1316</ele>
        <time>2018-06-07T19:53:36Z</time>
      </trkpt>
      <trkpt lat="42.67864" lon="1.91411">
        <ele>1310</ele>
        <time>2018-06-07T19:54:36Z</time>
      </trkpt>
      <trkpt lat="42.67884" lon="1.91387">
        <ele>1311</ele>
        <time>2018-06-07T19:55:36Z</time>
      </trkpt>
      <trkpt lat="42.67889" lon="1.91407">
        <ele>1299</ele>
        <time>2018-06-07T19:56:36Z</time>
      </trkpt>
      <trkpt lat="42.67908" lon="1.91386">
        <ele>1298</ele>
        <time>2018-06-07T19:57:36Z</time>
      </trkpt>
      <trkpt lat="42.67932" lon="1.91349">
        <ele>1302</ele>
        <time>2018-06-07T19:58:36Z</time>
      </trkpt>
      <trkpt lat="42.67948" lon="1.91331">
        <ele>1301</ele>
        <time>2018-06-07T19:59:36Z</time>
      </trkpt>
      <trkpt lat="42.67969" lon="1.91321">
        <ele>1295</ele>
        <time>2018-06-07T20:00:36Z</time>
      </trkpt>
      <trkpt lat="42.67984" lon="1.91306">
        <ele>1295</ele>
        <time>2018-06-07T20:01:36Z</time>
      </trkpt>
      <trkpt lat="42.67998" lon="1.91304">
        <ele>1287</ele>
        <time>2018-06-07T20:02:36Z</time>
      </trkpt>
      <trkpt lat="42.68018" lon="1.91309">
        <ele>1276</ele>
        <time>2018-06-07T20:03:36Z</time>
      </trkpt>
      <trkpt lat="42.68024" lon="1.91289">
        <ele>1284</ele>
        <time>2018-06-07T20:04:36Z</time>
      </trkpt>
      <trkpt lat="42.68037" lon="1.91284">
        <ele>1281</ele>
        <time>2018-06-07T20:05:36Z</time>
      </trkpt>
      <trkpt lat="42.68049" lon="1.91282">
        <ele>1277</ele>
        <time>2018-06-07T20:06:36Z</time>
      </trkpt>
      <trkpt lat="42.68058" lon="1.91277">
        <ele>1276</ele>
        <time>2018-06-07T20:07:36Z</time>
      </trkpt>
      <trkpt lat="42.68064" lon="1.91286">
        <ele>1268</ele>
        <time>2018-06-07T20:08:36Z</time>
      </trkpt>
      <trkpt lat="42.6805" lon="1.91303">
        <ele>1265</ele>
        <time>2018-06-07T20:09:36Z</time>
      </trkpt>
      <trkpt lat="42.68079" lon="1.91298">
        <ele>1255</ele>
        <time>2018-06-07T20:10:36Z</time>
      </trkpt>
      <trkpt lat="42.68099" lon="1.91282">
        <ele>1257</ele>
        <time>2018-06-07T20:11:36Z</time>
      </trkpt>
      <trkpt lat="42.68119" lon="1.91267">
        <ele>1261</ele>
        <time>2018-06-07T20:12:36Z</time>
      </trkpt>
      <trkpt lat="42.68136" lon="1.9126">
        <ele>1262</ele>
        <time>2018-06-07T20:13:36Z</time>
      </trkpt>
      <trkpt lat="42.68154" lon="1.91265">
        <ele>1254</ele>
        <time>2018-06-07T20:14:36Z</time>
      </trkpt>
      <trkpt lat="42.6817" lon="1.91247">
        <ele>1267</ele>
        <time>2018-06-07T20:15:36Z</time>
      </trkpt>
      <trkpt lat="42.68166" lon="1.91265">
        <ele>1251</ele>
        <time>2018-06-07T20:16:36Z</time>
      </trkpt>
      <trkpt lat="42.68191" lon="1.91249">
        <ele>1262</ele>
        <time>2018-06-07T20:17:36Z</time>
      </trkpt>
      <trkpt lat="42.6818" lon="1.91267">
        <ele>1247</ele>
        <time>2018-06-07T20:18:36Z</time>
      </trkpt>
      <trkpt lat="42.68175" lon="1.91279">
        <ele>1237</ele>
        <time>2018-06-07T20:19:36Z</time>
      </trkpt>
      <trkpt lat="42.68196" lon="1.91278">
        <ele>1235</ele>
        <time>2018-06-07T20:20:36Z</time>
      </trkpt>
      <trkpt lat="42.68179" lon="1.91286">
        <ele>1230</ele>
        <time>2018-06-07T20:21:36Z</time>
      </trkpt>
      <trkpt lat="42.68198" lon="1.91289">
        <ele>1224</ele>
        <time>2018-06-07T20:22:36Z</time>
      </trkpt>
      <trkpt lat="42.68208" lon="1.91302">
        <ele>1210</ele>
        <time>2018-06-07T20:23:36Z</time>
      </trkpt>
      <trkpt lat="42.68214" lon="1.91295">
        <ele>1216</ele>
        <time>2018-06-07T20:24:36Z</time>
      </trkpt>
      <trkpt lat="42.68209" lon="1.91289">
        <ele>1222</ele>
        <time>2018-06-07T20:25:36Z</time>
      </trkpt>
      <trkpt lat="42.68221" lon="1.91292">
        <ele>1217</ele>
        <time>2018-06-07T20:26:36Z</time>
      </trkpt>
      <trkpt lat="42.68223" lon="1.91304">
        <ele>1205</ele>
        <time>2018-06-07T20:27:36Z</time>
      </trkpt>
      <trkpt lat="42.68211" lon="1.91317">
        <ele>1195</ele>
        <time>2018-06-07T20:28:36Z</time>
      </trkpt>
      <trkpt lat="42.68217" lon="1.91319">
        <ele>1192</ele>
        <time>2018-06-07T20:29:36Z</time>
      </trkpt>
      <trkpt lat="42.68228" lon="1.91313">
        <ele>1196</ele>
        <time>2018-06-07T20:30:36Z</time>
      </trkpt>
      <trkpt lat="42.68252" lon="1.9131">
        <ele>1193</ele>
        <time>2018-06-07T20:31:36Z</time>
      </trkpt>
      <trkpt lat="42.68267" lon="1.91313">
        <ele>1184</ele>
        <time>2018-06-07T20:32:36Z</time>
      </trkpt>
      <trkpt lat="42.68282" lon="1.9131">
        <ele>1180</ele>
        <time>2018-06-07T20:33:36Z</time>
      </trkpt>
      <trkpt lat="42.683" lon="1.91328">
        <ele>1157</ele>
        <time>2018-06-07T20:34:36Z</time>
      </trkpt>
      <trkpt lat="42.68319" lon="1.91318">
        <ele>1157</ele>
        <time>2018-06-07T20:35:36Z</time>
      </trkpt>
      <trkpt lat="42.68335" lon="1.91321">
        <ele>1148</ele>
        <time>2018-06-07T20:36:36Z</time>
      </trkpt>
      <trkpt lat="42.68366" lon="1.91304">
        <ele>1140</ele>
        <time>2018-06-07T20:37:36Z</time>
      </trkpt>
      <trkpt lat="42.68394" lon="1.91308">
        <ele>1121</ele>
        <time>2018-06-07T20:38:36Z</time>
      </trkpt>
      <trkpt lat="42.68417" lon="1.91273">
        <ele>1126</ele>
        <time>2018-06-07T20:39:36Z</time>
      </trkpt>
      <trkpt lat="42.6843" lon="1.91252">
        <ele>1126</ele>
        <time>2018-06-07T20:40:36Z</time>
      </trkpt>
      <trkpt lat="42.68451" lon="1.91246">
        <ele>1112</ele>
        <time>2018-06-07T20:41:36Z</time>
      </trkpt>
      <trkpt lat="42.68467" lon="1.91242">
        <ele>1101</ele>
        <time>2018-06-07T20:42:36Z</time>
      </trkpt>
      <trkpt lat="42.6848" lon="1.9123">
        <ele>1096</ele>
        <time>2018-06-07T20:43:36Z</time>
      </trkpt>
      <trkpt lat="42.68511" lon="1.91209">
        <ele>1078</ele>
        <time>2018-06-07T20:44:36Z</time>
      </trkpt>
      <trkpt lat="42.68476" lon="1.91192">
        <ele>1116</ele>
        <time>2018-06-07T20:45:36Z</time>
      </trkpt>
      <trkpt lat="42.68483" lon="1.91181">
        <ele>1115</ele>
        <time>2018-06-07T20:46:36Z</time>
      </trkpt>
      <trkpt lat="42.68524" lon="1.91163">
        <ele>1087</ele>
        <time>2018-06-07T20:47:36Z</time>
      </trkpt>
      <trkpt lat="42.68555" lon="1.91136">
        <ele>1076</ele>
        <time>2018-06-07T20:48:36Z</time>
      </trkpt>
      <trkpt lat="42.68567" lon="1.91126">
        <ele>1070</ele>
        <time>2018-06-07T20:49:36Z</time>
      </trkpt>
      <trkpt lat="42.68565" lon="1.91114">
        <ele>1078</ele>
        <time>2018-06-07T20:50:36Z</time>
      </trkpt>
      <trkpt lat="42.68572" lon="1.91104">
        <ele>1077</ele>
        <time>2018-06-07T20:51:36Z</time>
      </trkpt>
      <trkpt lat="42.6858" lon="1.9111">
        <ele>1065</ele>
        <time>2018-06-07T20:52:36Z</time>
      </trkpt>
      <trkpt lat="42.68575" lon="1.91132">
        <ele>1059</ele>
        <time>2018-06-07T20:53:36Z</time>
      </trkpt>
      <trkpt lat="42.68567" lon="1.91135">
        <ele>1065</ele>
        <time>2018-06-07T20:54:36Z</time>
      </trkpt>
      <trkpt lat="42.68563" lon="1.91152">
        <ele>1059</ele>
        <time>2018-06-07T20:55:36Z</time>
      </trkpt>
      <trkpt lat="42.68583" lon="1.91146">
        <ele>1044</ele>
        <time>2018-06-07T20:56:36Z</time>
      </trkpt>
      <trkpt lat="42.68591" lon="1.9114">
        <ele>1041</ele>
        <time>2018-06-07T20:57:36Z</time>
      </trkpt>
      <trkpt lat="42.68598" lon="1.91126">
        <ele>1043</ele>
        <time>2018-06-07T20:58:36Z</time>
      </trkpt>
      <trkpt lat="42.6861" lon="1.91136">
        <ele>1029</ele>
        <time>2018-06-07T20:59:36Z</time>
      </trkpt>
      <trkpt lat="42.68592" lon="1.91158">
        <ele>1032</ele>
        <time>2018-06-07T21:00:36Z</time>
      </trkpt>
      <trkpt lat="42.68614" lon="1.91149">
        <ele>1020</ele>
        <time>2018-06-07T21:01:36Z</time>
      </trkpt>
      <trkpt lat="42.68622" lon="1.91134">
        <ele>1021</ele>
        <time>2018-06-07T21:02:36Z</time>
      </trkpt>
      <trkpt lat="42.68634" lon="1.91151">
        <ele>1005</ele>
        <time>2018-06-07T21:03:36Z</time>
      </trkpt>
      <trkpt lat="42.68651" lon="1.91136">
        <ele>998</ele>
        <time>2018-06-07T21:04:36Z</time>
      </trkpt>
      <trkpt lat="42.68674" lon="1.91119">
        <ele>989</ele>
        <time>2018-06-07T21:05:36Z</time>
      </trkpt>
      <trkpt lat="42.68667" lon="1.91112">
        <ele>995</ele>
        <time>2018-06-07T21:06:36Z</time>
      </trkpt>
      <trkpt lat="42.68696" lon="1.91091">
        <ele>988</ele>
        <time>2018-06-07T21:07:36Z</time>
      </trkpt>
      <trkpt lat="42.68705" lon="1.91078">
        <ele>988</ele>
        <time>2018-06-07T21:08:36Z</time>
      </trkpt>
      <trkpt lat="42.68715" lon="1.91082">
        <ele>981</ele>
        <time>2018-06-07T21:09:36Z</time>
      </trkpt>
      <trkpt lat="42.68702" lon="1.91093">
        <ele>984</ele>
        <time>2018-06-07T21:10:36Z</time>
      </trkpt>
      <trkpt lat="42.68707" lon="1.91095">
        <ele>981</ele>
        <time>2018-06-07T21:11:36Z</time>
      </trkpt>
      <trkpt lat="42.68706" lon="1.91109">
        <ele>977</ele>
        <time>2018-06-07T21:12:36Z</time>
      </trkpt>
      <trkpt lat="42.68715" lon="1.91106">
        <ele>974</ele>
        <time>2018-06-07T21:13:36Z</time>
      </trkpt>
      <trkpt lat="42.6871" lon="1.91117">
        <ele>973</ele>
        <time>2018-06-07T21:14:36Z</time>
      </trkpt>
      <trkpt lat="42.68721" lon="1.91126">
        <ele>965</ele>
        <time>2018-06-07T21:15:36Z</time>
      </trkpt>
      <trkpt lat="42.6872" lon="1.91137">
        <ele>962</ele>
        <time>2018-06-07T21:16:36Z</time>
      </trkpt>
      <trkpt lat="42.68728" lon="1.91135">
        <ele>959</ele>
        <time>2018-06-07T21:17:36Z</time>
      </trkpt>
      <trkpt lat="42.68729" lon="1.9115">
        <ele>954</ele>
        <time>2018-06-07T21:18:36Z</time>
      </trkpt>
      <trkpt lat="42.6872" lon="1.91179">
        <ele>950</ele>
        <time>2018-06-07T21:19:36Z</time>
      </trkpt>
      <trkpt lat="42.68728" lon="1.91191">
        <ele>944</ele>
        <time>2018-06-07T21:20:36Z</time>
      </trkpt>
      <trkpt lat="42.68733" lon="1.91208">
        <ele>937</ele>
        <time>2018-06-07T21:21:36Z</time>
      </trkpt>
      <trkpt lat="42.68744" lon="1.91206">
        <ele>934</ele>
        <time>2018-06-07T21:22:36Z</time>
      </trkpt>
      <trkpt lat="42.68745" lon="1.91224">
        <ele>929</ele>
        <time>2018-06-07T21:23:36Z</time>
      </trkpt>
      <trkpt lat="42.68706" lon="1.9126">
        <ele>934</ele>
        <time>2018-06-07T21:24:36Z</time>
      </trkpt>
      <trkpt lat="42.68694" lon="1.91287">
        <ele>932</ele>
        <time>2018-06-07T21:25:36Z</time>
      </trkpt>
      <trkpt lat="42.68688" lon="1.91311">
        <ele>928</ele>
        <time>2018-06-07T21:26:36Z</time>
      </trkpt>
      <trkpt lat="42.68689" lon="1.91347">
        <ele>922</ele>
        <time>2018-06-07T21:27:36Z</time>
      </trkpt>
      <trkpt lat="42.68683" lon="1.91417">
        <ele>918</ele>
        <time>2018-06-07T21:28:36Z</time>
      </trkpt>
      <trkpt lat="42.68718" lon="1.91463">
        <ele>919</ele>
        <time>2018-06-07T21:29:36Z</time>
      </trkpt>
      <trkpt lat="42.68782" lon="1.91549">
        <ele>927</ele>
        <time>2018-06-07T21:30:36Z</time>
      </trkpt>
      <trkpt lat="42.68796" lon="1.91543">
        <ele>927</ele>
        <time>2018-06-07T21:31:36Z</time>
      </trkpt>
      <trkpt lat="42.68829" lon="1.91486">
        <ele>922</ele>
        <time>2018-06-07T21:32:36Z</time>
      </trkpt>
      <trkpt lat="42.68841" lon="1.91503">
        <ele>924</ele>
        <time>2018-06-07T21:33:36Z</time>
      </trkpt>
      <trkpt lat="42.68897" lon="1.9149">
        <ele>928</ele>
        <time>2018-06-07T21:34:36Z</time>
      </trkpt>
      <trkpt lat="42.68923" lon="1.91482">
        <ele>930</ele>
        <time>2018-06-07T21:35:36Z</time>
      </trkpt>
      <trkpt lat="42.68964" lon="1.91492">
        <ele>942</ele>
        <time>2018-06-07T21:36:36Z</time>
      </trkpt>
      <trkpt lat="42.69" lon="1.91474">
        <ele>947</ele>
        <time>2018-06-07T21:37:36Z</time>
      </trkpt>
      <trkpt lat="42.69011" lon="1.91436">
        <ele>943</ele>
        <time>2018-06-07T21:38:36Z</time>
      </trkpt>
      <trkpt lat="42.69031" lon="1.91417">
        <ele>947</ele>
        <time>2018-06-07T21:39:36Z</time>
      </trkpt>
      <trkpt lat="42.69025" lon="1.91472">
        <ele>957</ele>
        <time>2018-06-07T21:40:36Z</time>
      </trkpt>
      <trkpt lat="42.68995" lon="1.91527">
        <ele>958</ele>
        <time>2018-06-07T21:41:36Z</time>
      </trkpt>
      <trkpt lat="42.68957" lon="1.9158">
        <ele>961</ele>
        <time>2018-06-07T21:42:36Z</time>
      </trkpt>
      <trkpt lat="42.68915" lon="1.91628">
        <ele>960</ele>
        <time>2018-06-07T21:43:36Z</time>
      </trkpt>
      <trkpt lat="42.68899" lon="1.91674">
        <ele>966</ele>
        <time>2018-06-07T21:44:36Z</time>
      </trkpt>
      <trkpt lat="42.68888" lon="1.91728">
        <ele>974</ele>
        <time>2018-06-07T21:45:36Z</time>
      </trkpt>
      <trkpt lat="42.68864" lon="1.9177">
        <ele>974</ele>
        <time>2018-06-07T21:46:36Z</time>
      </trkpt>
      <trkpt lat="42.68856" lon="1.91816">
        <ele>979</ele>
        <time>2018-06-07T21:47:36Z</time>
      </trkpt>
      <trkpt lat="42.68856" lon="1.91864">
        <ele>990</ele>
        <time>2018-06-07T21:48:36Z</time>
      </trkpt>
      <trkpt lat="42.68818" lon="1.91902">
        <ele>988</ele>
        <time>2018-06-07T21:49:36Z</time>
      </trkpt>
      <trkpt lat="42.6876" lon="1.91976">
        <ele>988</ele>
        <time>2018-06-07T21:50:36Z</time>
      </trkpt>
      <trkpt lat="42.68757" lon="1.92003">
        <ele>992</ele>
        <time>2018-06-07T21:51:36Z</time>
      </trkpt>
      <trkpt lat="42.68756" lon="1.92036">
        <ele>999</ele>
        <time>2018-06-07T21:52:36Z</time>
      </trkpt>
      <trkpt lat="42.68681" lon="1.92152">
        <ele>1007</ele>
        <time>2018-06-07T21:53:36Z</time>
      </trkpt>
      <trkpt lat="42.68664" lon="1.92238">
        <ele>1023</ele>
        <time>2018-06-07T21:54:36Z</time>
      </trkpt>
      <trkpt lat="42.6859" lon="1.92433">
        <ele>1034</ele>
        <time>2018-06-07T21:55:36Z</time>
      </trkpt>
      <trkpt lat="42.68556" lon="1.92598">
        <ele>1046</ele>
        <time>2018-06-07T21:56:36Z</time>
      </trkpt>
      <trkpt lat="42.68551" lon="1.92672">
        <ele>1047</ele>
        <time>2018-06-07T21:57:36Z</time>
      </trkpt>
      <trkpt lat="42.68551" lon="1.92729">
        <ele>1050</ele>
        <time>2018-06-07T21:58:36Z</time>
      </trkpt>
      <trkpt lat="42.68511" lon="1.92782">
        <ele>1046</ele>
        <time>2018-06-07T21:59:36Z</time>
      </trkpt>
      <trkpt lat="42.68496" lon="1.92841">
        <ele>1048</ele>
        <time>2018-06-07T22:00:36Z</time>
      </trkpt>
      <trkpt lat="42.6847" lon="1.92895">
        <ele>1054</ele>
        <time>2018-06-07T22:01:36Z</time>
      </trkpt>
      <trkpt lat="42.6848" lon="1.92932">
        <ele>1056</ele>
        <time>2018-06-07T22:02:36Z</time>
      </trkpt>
      <trkpt lat="42.68486" lon="1.92999">
        <ele>1058</ele>
        <time>2018-06-07T22:03:36Z</time>
      </trkpt>
      <trkpt lat="42.68499" lon="1.93038">
        <ele>1057</ele>
        <time>2018-06-07T22:04:36Z</time>
      </trkpt>
      <trkpt lat="42.68507" lon="1.93113">
        <ele>1061</ele>
        <time>2018-06-07T22:05:36Z</time>
      </trkpt>
      <trkpt lat="42.68437" lon="1.93296">
        <ele>1068</ele>
        <time>2018-06-07T22:06:36Z</time>
      </trkpt>
      <trkpt lat="42.68333" lon="1.93411">
        <ele>1071</ele>
        <time>2018-06-07T22:07:36Z</time>
      </trkpt>
      <trkpt lat="42.68309" lon="1.93463">
        <ele>1078</ele>
        <time>2018-06-07T22:08:36Z</time>
      </trkpt>
      <trkpt lat="42.68289" lon="1.93541">
        <ele>1084</ele>
        <time>2018-06-07T22:09:36Z</time>
      </trkpt>
      <trkpt lat="42.6827" lon="1.93691">
        <ele>1095</ele>
        <time>2018-06-07T22:10:36Z</time>
      </trkpt>
      <trkpt lat="42.68215" lon="1.93746">
        <ele>1100</ele>
        <time>2018-06-07T22:11:36Z</time>
      </trkpt>
      <trkpt lat="42.6818" lon="1.93821">
        <ele>1110</ele>
        <time>2018-06-07T22:12:36Z</time>
      </trkpt>
      <trkpt lat="42.68149" lon="1.93874">
        <ele>1119</ele>
        <time>2018-06-07T22:13:36Z</time>
      </trkpt>
      <trkpt lat="42.68142" lon="1.93932">
        <ele>1124</ele>
        <time>2018-06-07T22:14:36Z</time>
      </trkpt>
      <trkpt lat="42.68149" lon="1.93988">
        <ele>1125</ele>
        <time>2018-06-07T22:15:36Z</time>
      </trkpt>
      <trkpt lat="42.68159" lon="1.94054">
        <ele>1128</ele>
        <time>2018-06-07T22:16:36Z</time>
      </trkpt>
      <trkpt lat="42.68136" lon="1.94138">
        <ele>1133</ele>
        <time>2018-06-07T22:17:36Z</time>
      </trkpt>
      <trkpt lat="42.68142" lon="1.94198">
        <ele>1136</ele>
        <time>2018-06-07T22:18:36Z</time>
      </trkpt>
      <trkpt lat="42.68132" lon="1.94236">
        <ele>1137</ele>
        <time>2018-06-07T22:19:36Z</time>
      </trkpt>
      <trkpt lat="42.68127" lon="1.94287">
        <ele>1139</ele>
        <time>2018-06-07T22:20:36Z</time>
      </trkpt>
      <trkpt lat="42.68064" lon="1.94494">
        <ele>1140</ele>
        <time>2018-06-07T22:21:36Z</time>
      </trkpt>
      <trkpt lat="42.68021" lon="1.94604">
        <ele>1140</ele>
        <time>2018-06-07T22:22:36Z</time>
      </trkpt>
      <trkpt lat="42.67984" lon="1.94709">
        <ele>1139</ele>
        <time>2018-06-07T22:23:36Z</time>
      </trkpt>
      <trkpt lat="42.67984" lon="1.948">
        <ele>1144</ele>
        <time>2018-06-07T22:24:36Z</time>
      </trkpt>
      <trkpt lat="42.67985" lon="1.94851">
        <ele>1149</ele>
        <time>2018-06-07T22:25:36Z</time>
      </trkpt>
      <trkpt lat="42.67972" lon="1.94897">
        <ele>1155</ele>
        <time>2018-06-07T22:26:36Z</time>
      </trkpt>
      <trkpt lat="42.67939" lon="1.94916">
        <ele>1152</ele>
        <time>2018-06-07T22:27:36Z</time>
      </trkpt>
      <trkpt lat="42.67926" lon="1.94906">
        <ele>1148</ele>
        <time>2018-06-07T22:28:36Z</time>
      </trkpt>
    </trkseg>
  </trk>
</gpx>